<?xml version="1.0" encoding="UTF-8" standalone="no" ?>
<gpx xmlns="http://www.topografix.com/GPX/1/1" xmlns:xsi="http://www.w3.org/2001/XMLSchema-instance" xsi:schemaLocation="http://www.topografix.com/GPX/1/1 http://www.topografix.com/GPX/1/1/gpx.xsd" version="1.1" creator="VisuGPX - https://www.visugpx.com">
  <metadata>
    <name>sortie cyclo du 22/03/2011</name>
    <desc><![CDATA[Sortie agréable mais un peu difficile pour certains]]></desc>
  </metadata>
  <trk>
    <name><![CDATA[circuit 29 j louis]]></name>
    <trkseg>
      <trkpt lat="47.07436" lon="5.49514">
        <ele>209</ele>
        <time>2011-03-22T13:43:41Z</time>
      </trkpt>
      <trkpt lat="47.07434" lon="5.49512">
        <ele>208</ele>
        <time>2011-03-22T13:43:42Z</time>
      </trkpt>
      <trkpt lat="47.07432" lon="5.49507">
        <ele>185</ele>
        <time>2011-03-22T13:43:44Z</time>
      </trkpt>
      <trkpt lat="47.07432" lon="5.49511">
        <ele>185</ele>
        <time>2011-03-22T13:43:45Z</time>
      </trkpt>
      <trkpt lat="47.07433" lon="5.49506">
        <ele>186</ele>
        <time>2011-03-22T13:44:01Z</time>
      </trkpt>
      <trkpt lat="47.07434" lon="5.49504">
        <ele>189</ele>
        <time>2011-03-22T13:44:06Z</time>
      </trkpt>
      <trkpt lat="47.07434" lon="5.49504">
        <ele>191</ele>
        <time>2011-03-22T13:44:09Z</time>
      </trkpt>
      <trkpt lat="47.07434" lon="5.49504">
        <ele>192</ele>
        <time>2011-03-22T13:44:11Z</time>
      </trkpt>
      <trkpt lat="47.07434" lon="5.49504">
        <ele>193</ele>
        <time>2011-03-22T13:44:12Z</time>
      </trkpt>
      <trkpt lat="47.07438" lon="5.49488">
        <ele>196</ele>
        <time>2011-03-22T13:44:20Z</time>
      </trkpt>
      <trkpt lat="47.07452" lon="5.49456">
        <ele>199</ele>
        <time>2011-03-22T13:44:29Z</time>
      </trkpt>
      <trkpt lat="47.07456" lon="5.49435">
        <ele>200</ele>
        <time>2011-03-22T13:44:33Z</time>
      </trkpt>
      <trkpt lat="47.07457" lon="5.49424">
        <ele>200</ele>
        <time>2011-03-22T13:44:35Z</time>
      </trkpt>
      <trkpt lat="47.07463" lon="5.49399">
        <ele>200</ele>
        <time>2011-03-22T13:44:39Z</time>
      </trkpt>
      <trkpt lat="47.07529" lon="5.49268">
        <ele>200</ele>
        <time>2011-03-22T13:44:56Z</time>
      </trkpt>
      <trkpt lat="47.07599" lon="5.49135">
        <ele>200</ele>
        <time>2011-03-22T13:45:13Z</time>
      </trkpt>
      <trkpt lat="47.0769" lon="5.49005">
        <ele>199</ele>
        <time>2011-03-22T13:45:38Z</time>
      </trkpt>
      <trkpt lat="47.07755" lon="5.48958">
        <ele>198</ele>
        <time>2011-03-22T13:45:54Z</time>
      </trkpt>
      <trkpt lat="47.07767" lon="5.48967">
        <ele>198</ele>
        <time>2011-03-22T13:45:57Z</time>
      </trkpt>
      <trkpt lat="47.07808" lon="5.48953">
        <ele>197</ele>
        <time>2011-03-22T13:46:06Z</time>
      </trkpt>
      <trkpt lat="47.07811" lon="5.48905">
        <ele>198</ele>
        <time>2011-03-22T13:46:14Z</time>
      </trkpt>
      <trkpt lat="47.07807" lon="5.48894">
        <ele>198</ele>
        <time>2011-03-22T13:46:16Z</time>
      </trkpt>
      <trkpt lat="47.07812" lon="5.48824">
        <ele>199</ele>
        <time>2011-03-22T13:46:27Z</time>
      </trkpt>
      <trkpt lat="47.07817" lon="5.48798">
        <ele>200</ele>
        <time>2011-03-22T13:46:32Z</time>
      </trkpt>
      <trkpt lat="47.07845" lon="5.48695">
        <ele>202</ele>
        <time>2011-03-22T13:46:55Z</time>
      </trkpt>
      <trkpt lat="47.07873" lon="5.48591">
        <ele>206</ele>
        <time>2011-03-22T13:47:19Z</time>
      </trkpt>
      <trkpt lat="47.07901" lon="5.48483">
        <ele>208</ele>
        <time>2011-03-22T13:47:44Z</time>
      </trkpt>
      <trkpt lat="47.07923" lon="5.48402">
        <ele>211</ele>
        <time>2011-03-22T13:48:04Z</time>
      </trkpt>
      <trkpt lat="47.07949" lon="5.48307">
        <ele>214</ele>
        <time>2011-03-22T13:48:27Z</time>
      </trkpt>
      <trkpt lat="47.07973" lon="5.48214">
        <ele>217</ele>
        <time>2011-03-22T13:48:50Z</time>
      </trkpt>
      <trkpt lat="47.08" lon="5.48115">
        <ele>220</ele>
        <time>2011-03-22T13:49:14Z</time>
      </trkpt>
      <trkpt lat="47.08028" lon="5.4801">
        <ele>223</ele>
        <time>2011-03-22T13:49:39Z</time>
      </trkpt>
      <trkpt lat="47.08057" lon="5.479">
        <ele>226</ele>
        <time>2011-03-22T13:50:06Z</time>
      </trkpt>
      <trkpt lat="47.08083" lon="5.47802">
        <ele>229</ele>
        <time>2011-03-22T13:50:30Z</time>
      </trkpt>
      <trkpt lat="47.08108" lon="5.47725">
        <ele>231</ele>
        <time>2011-03-22T13:50:50Z</time>
      </trkpt>
      <trkpt lat="47.08135" lon="5.47673">
        <ele>233</ele>
        <time>2011-03-22T13:51:08Z</time>
      </trkpt>
      <trkpt lat="47.08165" lon="5.47635">
        <ele>234</ele>
        <time>2011-03-22T13:51:20Z</time>
      </trkpt>
      <trkpt lat="47.0816" lon="5.47578">
        <ele>236</ele>
        <time>2011-03-22T13:51:33Z</time>
      </trkpt>
      <trkpt lat="47.08173" lon="5.47517">
        <ele>238</ele>
        <time>2011-03-22T13:51:48Z</time>
      </trkpt>
      <trkpt lat="47.08182" lon="5.47482">
        <ele>241</ele>
        <time>2011-03-22T13:52:00Z</time>
      </trkpt>
      <trkpt lat="47.08195" lon="5.47426">
        <ele>245</ele>
        <time>2011-03-22T13:52:17Z</time>
      </trkpt>
      <trkpt lat="47.08197" lon="5.47345">
        <ele>247</ele>
        <time>2011-03-22T13:52:36Z</time>
      </trkpt>
      <trkpt lat="47.0819" lon="5.47246">
        <ele>247</ele>
        <time>2011-03-22T13:52:55Z</time>
      </trkpt>
      <trkpt lat="47.08184" lon="5.47139">
        <ele>245</ele>
        <time>2011-03-22T13:53:16Z</time>
      </trkpt>
      <trkpt lat="47.08177" lon="5.47061">
        <ele>245</ele>
        <time>2011-03-22T13:53:32Z</time>
      </trkpt>
      <trkpt lat="47.08175" lon="5.47017">
        <ele>244</ele>
        <time>2011-03-22T13:53:45Z</time>
      </trkpt>
      <trkpt lat="47.08176" lon="5.47015">
        <ele>244</ele>
        <time>2011-03-22T13:54:11Z</time>
      </trkpt>
      <trkpt lat="47.08179" lon="5.46977">
        <ele>244</ele>
        <time>2011-03-22T13:54:49Z</time>
      </trkpt>
      <trkpt lat="47.08191" lon="5.46842">
        <ele>243</ele>
        <time>2011-03-22T13:55:05Z</time>
      </trkpt>
      <trkpt lat="47.08184" lon="5.46714">
        <ele>241</ele>
        <time>2011-03-22T13:55:17Z</time>
      </trkpt>
      <trkpt lat="47.08152" lon="5.46638">
        <ele>238</ele>
        <time>2011-03-22T13:55:24Z</time>
      </trkpt>
      <trkpt lat="47.0812" lon="5.46577">
        <ele>236</ele>
        <time>2011-03-22T13:55:29Z</time>
      </trkpt>
      <trkpt lat="47.08106" lon="5.46553">
        <ele>232</ele>
        <time>2011-03-22T13:55:31Z</time>
      </trkpt>
      <trkpt lat="47.08052" lon="5.46449">
        <ele>234</ele>
        <time>2011-03-22T13:55:42Z</time>
      </trkpt>
      <trkpt lat="47.08022" lon="5.46371">
        <ele>233</ele>
        <time>2011-03-22T13:55:51Z</time>
      </trkpt>
      <trkpt lat="47.08022" lon="5.46311">
        <ele>232</ele>
        <time>2011-03-22T13:55:57Z</time>
      </trkpt>
      <trkpt lat="47.08035" lon="5.46258">
        <ele>230</ele>
        <time>2011-03-22T13:56:02Z</time>
      </trkpt>
      <trkpt lat="47.08056" lon="5.46164">
        <ele>227</ele>
        <time>2011-03-22T13:56:10Z</time>
      </trkpt>
      <trkpt lat="47.08076" lon="5.46055">
        <ele>224</ele>
        <time>2011-03-22T13:56:18Z</time>
      </trkpt>
      <trkpt lat="47.08088" lon="5.45985">
        <ele>221</ele>
        <time>2011-03-22T13:56:23Z</time>
      </trkpt>
      <trkpt lat="47.08099" lon="5.45933">
        <ele>219</ele>
        <time>2011-03-22T13:56:27Z</time>
      </trkpt>
      <trkpt lat="47.08104" lon="5.45901">
        <ele>218</ele>
        <time>2011-03-22T13:56:30Z</time>
      </trkpt>
      <trkpt lat="47.08112" lon="5.45859">
        <ele>216</ele>
        <time>2011-03-22T13:56:34Z</time>
      </trkpt>
      <trkpt lat="47.0813" lon="5.45824">
        <ele>215</ele>
        <time>2011-03-22T13:56:38Z</time>
      </trkpt>
      <trkpt lat="47.08257" lon="5.45692">
        <ele>213</ele>
        <time>2011-03-22T13:56:59Z</time>
      </trkpt>
      <trkpt lat="47.0833" lon="5.45635">
        <ele>210</ele>
        <time>2011-03-22T13:57:12Z</time>
      </trkpt>
      <trkpt lat="47.08355" lon="5.45604">
        <ele>211</ele>
        <time>2011-03-22T13:57:18Z</time>
      </trkpt>
      <trkpt lat="47.08404" lon="5.45571">
        <ele>211</ele>
        <time>2011-03-22T13:57:31Z</time>
      </trkpt>
      <trkpt lat="47.08445" lon="5.4556">
        <ele>213</ele>
        <time>2011-03-22T13:57:44Z</time>
      </trkpt>
      <trkpt lat="47.08525" lon="5.45529">
        <ele>213</ele>
        <time>2011-03-22T13:58:01Z</time>
      </trkpt>
      <trkpt lat="47.08601" lon="5.45502">
        <ele>215</ele>
        <time>2011-03-22T13:58:20Z</time>
      </trkpt>
      <trkpt lat="47.08653" lon="5.45475">
        <ele>215</ele>
        <time>2011-03-22T13:58:36Z</time>
      </trkpt>
      <trkpt lat="47.08717" lon="5.45469">
        <ele>218</ele>
        <time>2011-03-22T13:58:54Z</time>
      </trkpt>
      <trkpt lat="47.08776" lon="5.45459">
        <ele>221</ele>
        <time>2011-03-22T13:59:12Z</time>
      </trkpt>
      <trkpt lat="47.08815" lon="5.45439">
        <ele>222</ele>
        <time>2011-03-22T13:59:23Z</time>
      </trkpt>
      <trkpt lat="47.08829" lon="5.45429">
        <ele>223</ele>
        <time>2011-03-22T13:59:27Z</time>
      </trkpt>
      <trkpt lat="47.08898" lon="5.45357">
        <ele>224</ele>
        <time>2011-03-22T13:59:46Z</time>
      </trkpt>
      <trkpt lat="47.08916" lon="5.45326">
        <ele>224</ele>
        <time>2011-03-22T13:59:52Z</time>
      </trkpt>
      <trkpt lat="47.08941" lon="5.45317">
        <ele>225</ele>
        <time>2011-03-22T13:59:58Z</time>
      </trkpt>
      <trkpt lat="47.08997" lon="5.45322">
        <ele>228</ele>
        <time>2011-03-22T14:00:13Z</time>
      </trkpt>
      <trkpt lat="47.09047" lon="5.45294">
        <ele>231</ele>
        <time>2011-03-22T14:00:27Z</time>
      </trkpt>
      <trkpt lat="47.09102" lon="5.45261">
        <ele>235</ele>
        <time>2011-03-22T14:00:43Z</time>
      </trkpt>
      <trkpt lat="47.09162" lon="5.45223">
        <ele>236</ele>
        <time>2011-03-22T14:01:00Z</time>
      </trkpt>
      <trkpt lat="47.09237" lon="5.45178">
        <ele>236</ele>
        <time>2011-03-22T14:01:19Z</time>
      </trkpt>
      <trkpt lat="47.09315" lon="5.45132">
        <ele>239</ele>
        <time>2011-03-22T14:01:39Z</time>
      </trkpt>
      <trkpt lat="47.09351" lon="5.45112">
        <ele>242</ele>
        <time>2011-03-22T14:01:51Z</time>
      </trkpt>
      <trkpt lat="47.0938" lon="5.45096">
        <ele>244</ele>
        <time>2011-03-22T14:02:01Z</time>
      </trkpt>
      <trkpt lat="47.0942" lon="5.45102">
        <ele>247</ele>
        <time>2011-03-22T14:02:13Z</time>
      </trkpt>
      <trkpt lat="47.09472" lon="5.45139">
        <ele>249</ele>
        <time>2011-03-22T14:02:32Z</time>
      </trkpt>
      <trkpt lat="47.09517" lon="5.45162">
        <ele>251</ele>
        <time>2011-03-22T14:02:48Z</time>
      </trkpt>
      <trkpt lat="47.0957" lon="5.45184">
        <ele>252</ele>
        <time>2011-03-22T14:03:07Z</time>
      </trkpt>
      <trkpt lat="47.09629" lon="5.45192">
        <ele>255</ele>
        <time>2011-03-22T14:03:26Z</time>
      </trkpt>
      <trkpt lat="47.09674" lon="5.45146">
        <ele>258</ele>
        <time>2011-03-22T14:03:43Z</time>
      </trkpt>
      <trkpt lat="47.09705" lon="5.45102">
        <ele>261</ele>
        <time>2011-03-22T14:03:58Z</time>
      </trkpt>
      <trkpt lat="47.09739" lon="5.45058">
        <ele>264</ele>
        <time>2011-03-22T14:04:12Z</time>
      </trkpt>
      <trkpt lat="47.09767" lon="5.45021">
        <ele>266</ele>
        <time>2011-03-22T14:04:25Z</time>
      </trkpt>
      <trkpt lat="47.09793" lon="5.44973">
        <ele>269</ele>
        <time>2011-03-22T14:04:40Z</time>
      </trkpt>
      <trkpt lat="47.098" lon="5.44931">
        <ele>269</ele>
        <time>2011-03-22T14:04:55Z</time>
      </trkpt>
      <trkpt lat="47.09799" lon="5.44885">
        <ele>268</ele>
        <time>2011-03-22T14:05:05Z</time>
      </trkpt>
      <trkpt lat="47.09786" lon="5.44845">
        <ele>266</ele>
        <time>2011-03-22T14:05:11Z</time>
      </trkpt>
      <trkpt lat="47.09784" lon="5.44804">
        <ele>264</ele>
        <time>2011-03-22T14:05:16Z</time>
      </trkpt>
      <trkpt lat="47.09797" lon="5.44749">
        <ele>262</ele>
        <time>2011-03-22T14:05:23Z</time>
      </trkpt>
      <trkpt lat="47.09807" lon="5.44714">
        <ele>260</ele>
        <time>2011-03-22T14:05:27Z</time>
      </trkpt>
      <trkpt lat="47.09831" lon="5.44672">
        <ele>257</ele>
        <time>2011-03-22T14:05:32Z</time>
      </trkpt>
      <trkpt lat="47.09872" lon="5.44624">
        <ele>252</ele>
        <time>2011-03-22T14:05:39Z</time>
      </trkpt>
      <trkpt lat="47.09888" lon="5.44603">
        <ele>251</ele>
        <time>2011-03-22T14:05:42Z</time>
      </trkpt>
      <trkpt lat="47.09918" lon="5.44545">
        <ele>248</ele>
        <time>2011-03-22T14:05:49Z</time>
      </trkpt>
      <trkpt lat="47.09936" lon="5.44507">
        <ele>245</ele>
        <time>2011-03-22T14:05:53Z</time>
      </trkpt>
      <trkpt lat="47.09946" lon="5.44485">
        <ele>244</ele>
        <time>2011-03-22T14:05:55Z</time>
      </trkpt>
      <trkpt lat="47.09972" lon="5.44415">
        <ele>241</ele>
        <time>2011-03-22T14:06:03Z</time>
      </trkpt>
      <trkpt lat="47.09989" lon="5.44364">
        <ele>239</ele>
        <time>2011-03-22T14:06:14Z</time>
      </trkpt>
      <trkpt lat="47.10007" lon="5.44299">
        <ele>239</ele>
        <time>2011-03-22T14:06:29Z</time>
      </trkpt>
      <trkpt lat="47.10024" lon="5.44247">
        <ele>238</ele>
        <time>2011-03-22T14:06:37Z</time>
      </trkpt>
      <trkpt lat="47.10041" lon="5.44221">
        <ele>237</ele>
        <time>2011-03-22T14:06:41Z</time>
      </trkpt>
      <trkpt lat="47.10126" lon="5.44159">
        <ele>237</ele>
        <time>2011-03-22T14:06:56Z</time>
      </trkpt>
      <trkpt lat="47.10198" lon="5.44113">
        <ele>236</ele>
        <time>2011-03-22T14:07:09Z</time>
      </trkpt>
      <trkpt lat="47.10311" lon="5.44027">
        <ele>233</ele>
        <time>2011-03-22T14:07:30Z</time>
      </trkpt>
      <trkpt lat="47.10388" lon="5.4396">
        <ele>229</ele>
        <time>2011-03-22T14:07:43Z</time>
      </trkpt>
      <trkpt lat="47.10416" lon="5.43915">
        <ele>227</ele>
        <time>2011-03-22T14:07:48Z</time>
      </trkpt>
      <trkpt lat="47.10421" lon="5.43905">
        <ele>227</ele>
        <time>2011-03-22T14:07:49Z</time>
      </trkpt>
      <trkpt lat="47.10457" lon="5.4384">
        <ele>223</ele>
        <time>2011-03-22T14:07:56Z</time>
      </trkpt>
      <trkpt lat="47.10467" lon="5.43819">
        <ele>222</ele>
        <time>2011-03-22T14:07:58Z</time>
      </trkpt>
      <trkpt lat="47.10505" lon="5.43742">
        <ele>219</ele>
        <time>2011-03-22T14:08:08Z</time>
      </trkpt>
      <trkpt lat="47.10522" lon="5.43749">
        <ele>219</ele>
        <time>2011-03-22T14:08:17Z</time>
      </trkpt>
      <trkpt lat="47.10524" lon="5.43752">
        <ele>218</ele>
        <time>2011-03-22T14:08:33Z</time>
      </trkpt>
      <trkpt lat="47.1053" lon="5.43753">
        <ele>219</ele>
        <time>2011-03-22T14:08:36Z</time>
      </trkpt>
      <trkpt lat="47.10578" lon="5.43713">
        <ele>219</ele>
        <time>2011-03-22T14:08:49Z</time>
      </trkpt>
      <trkpt lat="47.106" lon="5.43699">
        <ele>219</ele>
        <time>2011-03-22T14:08:54Z</time>
      </trkpt>
      <trkpt lat="47.10626" lon="5.43657">
        <ele>219</ele>
        <time>2011-03-22T14:09:02Z</time>
      </trkpt>
      <trkpt lat="47.10643" lon="5.43585">
        <ele>219</ele>
        <time>2011-03-22T14:09:17Z</time>
      </trkpt>
      <trkpt lat="47.10658" lon="5.43539">
        <ele>219</ele>
        <time>2011-03-22T14:09:27Z</time>
      </trkpt>
      <trkpt lat="47.10726" lon="5.43425">
        <ele>220</ele>
        <time>2011-03-22T14:09:48Z</time>
      </trkpt>
      <trkpt lat="47.10787" lon="5.43318">
        <ele>219</ele>
        <time>2011-03-22T14:10:06Z</time>
      </trkpt>
      <trkpt lat="47.10812" lon="5.43245">
        <ele>216</ele>
        <time>2011-03-22T14:10:14Z</time>
      </trkpt>
      <trkpt lat="47.10833" lon="5.43202">
        <ele>215</ele>
        <time>2011-03-22T14:10:19Z</time>
      </trkpt>
      <trkpt lat="47.10851" lon="5.43091">
        <ele>215</ele>
        <time>2011-03-22T14:10:32Z</time>
      </trkpt>
      <trkpt lat="47.10879" lon="5.4296">
        <ele>214</ele>
        <time>2011-03-22T14:10:47Z</time>
      </trkpt>
      <trkpt lat="47.10888" lon="5.42945">
        <ele>214</ele>
        <time>2011-03-22T14:10:49Z</time>
      </trkpt>
      <trkpt lat="47.10978" lon="5.42874">
        <ele>214</ele>
        <time>2011-03-22T14:11:05Z</time>
      </trkpt>
      <trkpt lat="47.11112" lon="5.4274">
        <ele>213</ele>
        <time>2011-03-22T14:11:31Z</time>
      </trkpt>
      <trkpt lat="47.11234" lon="5.42599">
        <ele>213</ele>
        <time>2011-03-22T14:11:56Z</time>
      </trkpt>
      <trkpt lat="47.1132" lon="5.42474">
        <ele>214</ele>
        <time>2011-03-22T14:12:18Z</time>
      </trkpt>
      <trkpt lat="47.11379" lon="5.42335">
        <ele>213</ele>
        <time>2011-03-22T14:12:38Z</time>
      </trkpt>
      <trkpt lat="47.11453" lon="5.42163">
        <ele>213</ele>
        <time>2011-03-22T14:13:03Z</time>
      </trkpt>
      <trkpt lat="47.11517" lon="5.41993">
        <ele>211</ele>
        <time>2011-03-22T14:13:27Z</time>
      </trkpt>
      <trkpt lat="47.1158" lon="5.41812">
        <ele>212</ele>
        <time>2011-03-22T14:13:52Z</time>
      </trkpt>
      <trkpt lat="47.11595" lon="5.4177">
        <ele>213</ele>
        <time>2011-03-22T14:13:58Z</time>
      </trkpt>
      <trkpt lat="47.11651" lon="5.41611">
        <ele>212</ele>
        <time>2011-03-22T14:14:21Z</time>
      </trkpt>
      <trkpt lat="47.11715" lon="5.41426">
        <ele>211</ele>
        <time>2011-03-22T14:14:46Z</time>
      </trkpt>
      <trkpt lat="47.11777" lon="5.41247">
        <ele>211</ele>
        <time>2011-03-22T14:15:11Z</time>
      </trkpt>
      <trkpt lat="47.11827" lon="5.41073">
        <ele>210</ele>
        <time>2011-03-22T14:15:33Z</time>
      </trkpt>
      <trkpt lat="47.11849" lon="5.40965">
        <ele>210</ele>
        <time>2011-03-22T14:15:46Z</time>
      </trkpt>
      <trkpt lat="47.11875" lon="5.40858">
        <ele>210</ele>
        <time>2011-03-22T14:15:59Z</time>
      </trkpt>
      <trkpt lat="47.11914" lon="5.40708">
        <ele>210</ele>
        <time>2011-03-22T14:16:19Z</time>
      </trkpt>
      <trkpt lat="47.11905" lon="5.40554">
        <ele>207</ele>
        <time>2011-03-22T14:16:36Z</time>
      </trkpt>
      <trkpt lat="47.11865" lon="5.40405">
        <ele>208</ele>
        <time>2011-03-22T14:16:54Z</time>
      </trkpt>
      <trkpt lat="47.11824" lon="5.40338">
        <ele>208</ele>
        <time>2011-03-22T14:17:05Z</time>
      </trkpt>
      <trkpt lat="47.11814" lon="5.40291">
        <ele>207</ele>
        <time>2011-03-22T14:17:11Z</time>
      </trkpt>
      <trkpt lat="47.11825" lon="5.40068">
        <ele>209</ele>
        <time>2011-03-22T14:17:37Z</time>
      </trkpt>
      <trkpt lat="47.11847" lon="5.39885">
        <ele>209</ele>
        <time>2011-03-22T14:17:58Z</time>
      </trkpt>
      <trkpt lat="47.11831" lon="5.39735">
        <ele>206</ele>
        <time>2011-03-22T14:18:13Z</time>
      </trkpt>
      <trkpt lat="47.11822" lon="5.39703">
        <ele>205</ele>
        <time>2011-03-22T14:18:16Z</time>
      </trkpt>
      <trkpt lat="47.11801" lon="5.39635">
        <ele>202</ele>
        <time>2011-03-22T14:18:22Z</time>
      </trkpt>
      <trkpt lat="47.11758" lon="5.39498">
        <ele>204</ele>
        <time>2011-03-22T14:18:37Z</time>
      </trkpt>
      <trkpt lat="47.11731" lon="5.39411">
        <ele>207</ele>
        <time>2011-03-22T14:18:50Z</time>
      </trkpt>
      <trkpt lat="47.11672" lon="5.39227">
        <ele>210</ele>
        <time>2011-03-22T14:19:20Z</time>
      </trkpt>
      <trkpt lat="47.1162" lon="5.39046">
        <ele>208</ele>
        <time>2011-03-22T14:19:45Z</time>
      </trkpt>
      <trkpt lat="47.11581" lon="5.38834">
        <ele>207</ele>
        <time>2011-03-22T14:20:11Z</time>
      </trkpt>
      <trkpt lat="47.11569" lon="5.386">
        <ele>207</ele>
        <time>2011-03-22T14:20:39Z</time>
      </trkpt>
      <trkpt lat="47.11578" lon="5.38418">
        <ele>205</ele>
        <time>2011-03-22T14:21:00Z</time>
      </trkpt>
      <trkpt lat="47.11633" lon="5.38283">
        <ele>204</ele>
        <time>2011-03-22T14:21:17Z</time>
      </trkpt>
      <trkpt lat="47.11745" lon="5.38084">
        <ele>202</ele>
        <time>2011-03-22T14:21:45Z</time>
      </trkpt>
      <trkpt lat="47.11843" lon="5.37906">
        <ele>199</ele>
        <time>2011-03-22T14:22:10Z</time>
      </trkpt>
      <trkpt lat="47.11888" lon="5.37769">
        <ele>198</ele>
        <time>2011-03-22T14:22:27Z</time>
      </trkpt>
      <trkpt lat="47.11892" lon="5.37618">
        <ele>201</ele>
        <time>2011-03-22T14:22:46Z</time>
      </trkpt>
      <trkpt lat="47.1187" lon="5.37454">
        <ele>201</ele>
        <time>2011-03-22T14:23:07Z</time>
      </trkpt>
      <trkpt lat="47.11889" lon="5.37278">
        <ele>198</ele>
        <time>2011-03-22T14:23:27Z</time>
      </trkpt>
      <trkpt lat="47.11939" lon="5.37134">
        <ele>199</ele>
        <time>2011-03-22T14:23:46Z</time>
      </trkpt>
      <trkpt lat="47.12025" lon="5.37">
        <ele>200</ele>
        <time>2011-03-22T14:24:10Z</time>
      </trkpt>
      <trkpt lat="47.12088" lon="5.36921">
        <ele>197</ele>
        <time>2011-03-22T14:24:24Z</time>
      </trkpt>
      <trkpt lat="47.12104" lon="5.36901">
        <ele>195</ele>
        <time>2011-03-22T14:24:27Z</time>
      </trkpt>
      <trkpt lat="47.12112" lon="5.3689">
        <ele>193</ele>
        <time>2011-03-22T14:24:29Z</time>
      </trkpt>
      <trkpt lat="47.12128" lon="5.36897">
        <ele>193</ele>
        <time>2011-03-22T14:24:34Z</time>
      </trkpt>
      <trkpt lat="47.12139" lon="5.36945">
        <ele>195</ele>
        <time>2011-03-22T14:24:47Z</time>
      </trkpt>
      <trkpt lat="47.12154" lon="5.3702">
        <ele>197</ele>
        <time>2011-03-22T14:25:02Z</time>
      </trkpt>
      <trkpt lat="47.12174" lon="5.37104">
        <ele>196</ele>
        <time>2011-03-22T14:25:17Z</time>
      </trkpt>
      <trkpt lat="47.12186" lon="5.37122">
        <ele>197</ele>
        <time>2011-03-22T14:25:21Z</time>
      </trkpt>
      <trkpt lat="47.12249" lon="5.37181">
        <ele>196</ele>
        <time>2011-03-22T14:25:39Z</time>
      </trkpt>
      <trkpt lat="47.12297" lon="5.37254">
        <ele>197</ele>
        <time>2011-03-22T14:25:56Z</time>
      </trkpt>
      <trkpt lat="47.12332" lon="5.37318">
        <ele>201</ele>
        <time>2011-03-22T14:26:09Z</time>
      </trkpt>
      <trkpt lat="47.12337" lon="5.37333">
        <ele>201</ele>
        <time>2011-03-22T14:26:11Z</time>
      </trkpt>
      <trkpt lat="47.12386" lon="5.37452">
        <ele>201</ele>
        <time>2011-03-22T14:26:29Z</time>
      </trkpt>
      <trkpt lat="47.12468" lon="5.37543">
        <ele>202</ele>
        <time>2011-03-22T14:26:50Z</time>
      </trkpt>
      <trkpt lat="47.12556" lon="5.37565">
        <ele>202</ele>
        <time>2011-03-22T14:27:08Z</time>
      </trkpt>
      <trkpt lat="47.12566" lon="5.37566">
        <ele>202</ele>
        <time>2011-03-22T14:27:10Z</time>
      </trkpt>
      <trkpt lat="47.12581" lon="5.37568">
        <ele>201</ele>
        <time>2011-03-22T14:27:13Z</time>
      </trkpt>
      <trkpt lat="47.12687" lon="5.37581">
        <ele>201</ele>
        <time>2011-03-22T14:27:33Z</time>
      </trkpt>
      <trkpt lat="47.12808" lon="5.37617">
        <ele>201</ele>
        <time>2011-03-22T14:27:56Z</time>
      </trkpt>
      <trkpt lat="47.12945" lon="5.37692">
        <ele>200</ele>
        <time>2011-03-22T14:28:24Z</time>
      </trkpt>
      <trkpt lat="47.13052" lon="5.37751">
        <ele>196</ele>
        <time>2011-03-22T14:28:42Z</time>
      </trkpt>
      <trkpt lat="47.13128" lon="5.37792">
        <ele>193</ele>
        <time>2011-03-22T14:28:53Z</time>
      </trkpt>
      <trkpt lat="47.1326" lon="5.37877">
        <ele>194</ele>
        <time>2011-03-22T14:29:14Z</time>
      </trkpt>
      <trkpt lat="47.13389" lon="5.37951">
        <ele>192</ele>
        <time>2011-03-22T14:29:36Z</time>
      </trkpt>
      <trkpt lat="47.13402" lon="5.37958">
        <ele>191</ele>
        <time>2011-03-22T14:29:38Z</time>
      </trkpt>
      <trkpt lat="47.13499" lon="5.38015">
        <ele>188</ele>
        <time>2011-03-22T14:29:53Z</time>
      </trkpt>
      <trkpt lat="47.13618" lon="5.3808">
        <ele>187</ele>
        <time>2011-03-22T14:30:12Z</time>
      </trkpt>
      <trkpt lat="47.13694" lon="5.38132">
        <ele>190</ele>
        <time>2011-03-22T14:30:29Z</time>
      </trkpt>
      <trkpt lat="47.1379" lon="5.382">
        <ele>193</ele>
        <time>2011-03-22T14:30:51Z</time>
      </trkpt>
      <trkpt lat="47.13902" lon="5.38281">
        <ele>196</ele>
        <time>2011-03-22T14:31:15Z</time>
      </trkpt>
      <trkpt lat="47.13973" lon="5.38363">
        <ele>199</ele>
        <time>2011-03-22T14:31:36Z</time>
      </trkpt>
      <trkpt lat="47.14048" lon="5.38448">
        <ele>200</ele>
        <time>2011-03-22T14:31:58Z</time>
      </trkpt>
      <trkpt lat="47.14123" lon="5.38524">
        <ele>200</ele>
        <time>2011-03-22T14:32:19Z</time>
      </trkpt>
      <trkpt lat="47.14207" lon="5.38575">
        <ele>198</ele>
        <time>2011-03-22T14:32:39Z</time>
      </trkpt>
      <trkpt lat="47.14242" lon="5.38598">
        <ele>194</ele>
        <time>2011-03-22T14:32:45Z</time>
      </trkpt>
      <trkpt lat="47.14317" lon="5.38647">
        <ele>191</ele>
        <time>2011-03-22T14:32:57Z</time>
      </trkpt>
      <trkpt lat="47.14454" lon="5.38733">
        <ele>189</ele>
        <time>2011-03-22T14:33:20Z</time>
      </trkpt>
      <trkpt lat="47.14578" lon="5.38815">
        <ele>188</ele>
        <time>2011-03-22T14:33:41Z</time>
      </trkpt>
      <trkpt lat="47.14639" lon="5.3887">
        <ele>188</ele>
        <time>2011-03-22T14:33:53Z</time>
      </trkpt>
      <trkpt lat="47.14683" lon="5.38863">
        <ele>188</ele>
        <time>2011-03-22T14:34:01Z</time>
      </trkpt>
      <trkpt lat="47.14718" lon="5.38821">
        <ele>188</ele>
        <time>2011-03-22T14:34:09Z</time>
      </trkpt>
      <trkpt lat="47.14808" lon="5.38724">
        <ele>187</ele>
        <time>2011-03-22T14:34:32Z</time>
      </trkpt>
      <trkpt lat="47.14899" lon="5.38636">
        <ele>188</ele>
        <time>2011-03-22T14:34:52Z</time>
      </trkpt>
      <trkpt lat="47.15038" lon="5.38551">
        <ele>188</ele>
        <time>2011-03-22T14:35:20Z</time>
      </trkpt>
      <trkpt lat="47.15165" lon="5.38472">
        <ele>187</ele>
        <time>2011-03-22T14:35:45Z</time>
      </trkpt>
      <trkpt lat="47.15277" lon="5.38396">
        <ele>187</ele>
        <time>2011-03-22T14:36:08Z</time>
      </trkpt>
      <trkpt lat="47.15385" lon="5.38323">
        <ele>186</ele>
        <time>2011-03-22T14:36:29Z</time>
      </trkpt>
      <trkpt lat="47.15497" lon="5.38249">
        <ele>186</ele>
        <time>2011-03-22T14:36:51Z</time>
      </trkpt>
      <trkpt lat="47.15584" lon="5.38237">
        <ele>186</ele>
        <time>2011-03-22T14:37:07Z</time>
      </trkpt>
      <trkpt lat="47.15685" lon="5.3823">
        <ele>187</ele>
        <time>2011-03-22T14:37:27Z</time>
      </trkpt>
      <trkpt lat="47.15748" lon="5.38185">
        <ele>187</ele>
        <time>2011-03-22T14:37:41Z</time>
      </trkpt>
      <trkpt lat="47.15775" lon="5.38118">
        <ele>187</ele>
        <time>2011-03-22T14:37:52Z</time>
      </trkpt>
      <trkpt lat="47.15782" lon="5.38096">
        <ele>187</ele>
        <time>2011-03-22T14:37:56Z</time>
      </trkpt>
      <trkpt lat="47.15822" lon="5.3805">
        <ele>186</ele>
        <time>2011-03-22T14:38:10Z</time>
      </trkpt>
      <trkpt lat="47.15904" lon="5.38026">
        <ele>187</ele>
        <time>2011-03-22T14:38:31Z</time>
      </trkpt>
      <trkpt lat="47.16007" lon="5.38002">
        <ele>188</ele>
        <time>2011-03-22T14:38:55Z</time>
      </trkpt>
      <trkpt lat="47.16132" lon="5.37997">
        <ele>186</ele>
        <time>2011-03-22T14:39:21Z</time>
      </trkpt>
      <trkpt lat="47.16284" lon="5.38059">
        <ele>188</ele>
        <time>2011-03-22T14:39:52Z</time>
      </trkpt>
      <trkpt lat="47.16391" lon="5.38094">
        <ele>188</ele>
        <time>2011-03-22T14:40:14Z</time>
      </trkpt>
      <trkpt lat="47.16524" lon="5.38138">
        <ele>188</ele>
        <time>2011-03-22T14:40:40Z</time>
      </trkpt>
      <trkpt lat="47.16636" lon="5.38202">
        <ele>188</ele>
        <time>2011-03-22T14:41:04Z</time>
      </trkpt>
      <trkpt lat="47.16746" lon="5.38256">
        <ele>187</ele>
        <time>2011-03-22T14:41:27Z</time>
      </trkpt>
      <trkpt lat="47.16765" lon="5.38261">
        <ele>187</ele>
        <time>2011-03-22T14:41:31Z</time>
      </trkpt>
      <trkpt lat="47.1683" lon="5.38261">
        <ele>189</ele>
        <time>2011-03-22T14:41:46Z</time>
      </trkpt>
      <trkpt lat="47.1684" lon="5.3826">
        <ele>187</ele>
        <time>2011-03-22T14:41:48Z</time>
      </trkpt>
      <trkpt lat="47.1695" lon="5.38248">
        <ele>187</ele>
        <time>2011-03-22T14:42:10Z</time>
      </trkpt>
      <trkpt lat="47.17094" lon="5.38261">
        <ele>187</ele>
        <time>2011-03-22T14:42:38Z</time>
      </trkpt>
      <trkpt lat="47.17244" lon="5.38294">
        <ele>187</ele>
        <time>2011-03-22T14:43:08Z</time>
      </trkpt>
      <trkpt lat="47.17421" lon="5.38369">
        <ele>188</ele>
        <time>2011-03-22T14:43:43Z</time>
      </trkpt>
      <trkpt lat="47.1758" lon="5.38415">
        <ele>188</ele>
        <time>2011-03-22T14:44:13Z</time>
      </trkpt>
      <trkpt lat="47.17742" lon="5.3846">
        <ele>187</ele>
        <time>2011-03-22T14:44:43Z</time>
      </trkpt>
      <trkpt lat="47.17879" lon="5.38499">
        <ele>187</ele>
        <time>2011-03-22T14:45:10Z</time>
      </trkpt>
      <trkpt lat="47.18043" lon="5.38524">
        <ele>188</ele>
        <time>2011-03-22T14:45:41Z</time>
      </trkpt>
      <trkpt lat="47.18233" lon="5.38525">
        <ele>189</ele>
        <time>2011-03-22T14:46:16Z</time>
      </trkpt>
      <trkpt lat="47.18378" lon="5.38547">
        <ele>189</ele>
        <time>2011-03-22T14:46:42Z</time>
      </trkpt>
      <trkpt lat="47.18423" lon="5.38558">
        <ele>192</ele>
        <time>2011-03-22T14:46:50Z</time>
      </trkpt>
      <trkpt lat="47.18453" lon="5.38569">
        <ele>194</ele>
        <time>2011-03-22T14:46:55Z</time>
      </trkpt>
      <trkpt lat="47.18517" lon="5.38593">
        <ele>195</ele>
        <time>2011-03-22T14:47:11Z</time>
      </trkpt>
      <trkpt lat="47.18605" lon="5.38619">
        <ele>192</ele>
        <time>2011-03-22T14:47:31Z</time>
      </trkpt>
      <trkpt lat="47.18663" lon="5.38604">
        <ele>189</ele>
        <time>2011-03-22T14:47:40Z</time>
      </trkpt>
      <trkpt lat="47.18677" lon="5.38597">
        <ele>189</ele>
        <time>2011-03-22T14:47:42Z</time>
      </trkpt>
      <trkpt lat="47.18714" lon="5.38594">
        <ele>187</ele>
        <time>2011-03-22T14:47:47Z</time>
      </trkpt>
      <trkpt lat="47.18803" lon="5.38637">
        <ele>187</ele>
        <time>2011-03-22T14:48:03Z</time>
      </trkpt>
      <trkpt lat="47.18883" lon="5.38672">
        <ele>188</ele>
        <time>2011-03-22T14:48:19Z</time>
      </trkpt>
      <trkpt lat="47.18982" lon="5.38716">
        <ele>188</ele>
        <time>2011-03-22T14:48:40Z</time>
      </trkpt>
      <trkpt lat="47.19089" lon="5.38769">
        <ele>188</ele>
        <time>2011-03-22T14:49:03Z</time>
      </trkpt>
      <trkpt lat="47.19114" lon="5.38783">
        <ele>188</ele>
        <time>2011-03-22T14:49:14Z</time>
      </trkpt>
      <trkpt lat="47.19127" lon="5.38802">
        <ele>188</ele>
        <time>2011-03-22T14:49:32Z</time>
      </trkpt>
      <trkpt lat="47.19131" lon="5.38811">
        <ele>188</ele>
        <time>2011-03-22T14:49:50Z</time>
      </trkpt>
      <trkpt lat="47.19146" lon="5.38854">
        <ele>188</ele>
        <time>2011-03-22T14:49:59Z</time>
      </trkpt>
      <trkpt lat="47.19159" lon="5.38873">
        <ele>188</ele>
        <time>2011-03-22T14:50:03Z</time>
      </trkpt>
      <trkpt lat="47.19226" lon="5.38913">
        <ele>190</ele>
        <time>2011-03-22T14:50:20Z</time>
      </trkpt>
      <trkpt lat="47.19243" lon="5.38934">
        <ele>189</ele>
        <time>2011-03-22T14:50:25Z</time>
      </trkpt>
      <trkpt lat="47.19248" lon="5.38945">
        <ele>190</ele>
        <time>2011-03-22T14:50:27Z</time>
      </trkpt>
      <trkpt lat="47.19267" lon="5.38954">
        <ele>190</ele>
        <time>2011-03-22T14:50:32Z</time>
      </trkpt>
      <trkpt lat="47.19277" lon="5.38952">
        <ele>190</ele>
        <time>2011-03-22T14:50:34Z</time>
      </trkpt>
      <trkpt lat="47.19285" lon="5.38952">
        <ele>190</ele>
        <time>2011-03-22T14:50:36Z</time>
      </trkpt>
      <trkpt lat="47.19299" lon="5.38955">
        <ele>190</ele>
        <time>2011-03-22T14:50:39Z</time>
      </trkpt>
      <trkpt lat="47.194" lon="5.39016">
        <ele>191</ele>
        <time>2011-03-22T14:51:01Z</time>
      </trkpt>
      <trkpt lat="47.19473" lon="5.39059">
        <ele>191</ele>
        <time>2011-03-22T14:51:16Z</time>
      </trkpt>
      <trkpt lat="47.1951" lon="5.39038">
        <ele>192</ele>
        <time>2011-03-22T14:51:24Z</time>
      </trkpt>
      <trkpt lat="47.1953" lon="5.38982">
        <ele>191</ele>
        <time>2011-03-22T14:51:32Z</time>
      </trkpt>
      <trkpt lat="47.19551" lon="5.38966">
        <ele>191</ele>
        <time>2011-03-22T14:51:37Z</time>
      </trkpt>
      <trkpt lat="47.19568" lon="5.38969">
        <ele>192</ele>
        <time>2011-03-22T14:51:41Z</time>
      </trkpt>
      <trkpt lat="47.19672" lon="5.39055">
        <ele>191</ele>
        <time>2011-03-22T14:52:05Z</time>
      </trkpt>
      <trkpt lat="47.19724" lon="5.39096">
        <ele>191</ele>
        <time>2011-03-22T14:52:16Z</time>
      </trkpt>
      <trkpt lat="47.19755" lon="5.39134">
        <ele>190</ele>
        <time>2011-03-22T14:52:23Z</time>
      </trkpt>
      <trkpt lat="47.19819" lon="5.39263">
        <ele>190</ele>
        <time>2011-03-22T14:52:43Z</time>
      </trkpt>
      <trkpt lat="47.19872" lon="5.39367">
        <ele>190</ele>
        <time>2011-03-22T14:53:02Z</time>
      </trkpt>
      <trkpt lat="47.19944" lon="5.39513">
        <ele>192</ele>
        <time>2011-03-22T14:53:25Z</time>
      </trkpt>
      <trkpt lat="47.20031" lon="5.39691">
        <ele>191</ele>
        <time>2011-03-22T14:53:52Z</time>
      </trkpt>
      <trkpt lat="47.20124" lon="5.39877">
        <ele>190</ele>
        <time>2011-03-22T14:54:18Z</time>
      </trkpt>
      <trkpt lat="47.20211" lon="5.40052">
        <ele>191</ele>
        <time>2011-03-22T14:54:45Z</time>
      </trkpt>
      <trkpt lat="47.20295" lon="5.40216">
        <ele>190</ele>
        <time>2011-03-22T14:55:10Z</time>
      </trkpt>
      <trkpt lat="47.20352" lon="5.40333">
        <ele>190</ele>
        <time>2011-03-22T14:55:30Z</time>
      </trkpt>
      <trkpt lat="47.20441" lon="5.40511">
        <ele>190</ele>
        <time>2011-03-22T14:56:00Z</time>
      </trkpt>
      <trkpt lat="47.20454" lon="5.40538">
        <ele>189</ele>
        <time>2011-03-22T14:56:05Z</time>
      </trkpt>
      <trkpt lat="47.20526" lon="5.40681">
        <ele>189</ele>
        <time>2011-03-22T14:56:30Z</time>
      </trkpt>
      <trkpt lat="47.206" lon="5.40832">
        <ele>189</ele>
        <time>2011-03-22T14:56:56Z</time>
      </trkpt>
      <trkpt lat="47.20679" lon="5.40991">
        <ele>190</ele>
        <time>2011-03-22T14:57:23Z</time>
      </trkpt>
      <trkpt lat="47.20756" lon="5.41143">
        <ele>190</ele>
        <time>2011-03-22T14:57:49Z</time>
      </trkpt>
      <trkpt lat="47.20859" lon="5.41351">
        <ele>190</ele>
        <time>2011-03-22T14:58:21Z</time>
      </trkpt>
      <trkpt lat="47.20948" lon="5.4153">
        <ele>191</ele>
        <time>2011-03-22T14:58:52Z</time>
      </trkpt>
      <trkpt lat="47.20994" lon="5.41625">
        <ele>194</ele>
        <time>2011-03-22T14:59:12Z</time>
      </trkpt>
      <trkpt lat="47.21037" lon="5.41712">
        <ele>197</ele>
        <time>2011-03-22T14:59:30Z</time>
      </trkpt>
      <trkpt lat="47.21082" lon="5.41803">
        <ele>201</ele>
        <time>2011-03-22T14:59:49Z</time>
      </trkpt>
      <trkpt lat="47.2111" lon="5.41858">
        <ele>202</ele>
        <time>2011-03-22T15:00:01Z</time>
      </trkpt>
      <trkpt lat="47.21149" lon="5.41933">
        <ele>203</ele>
        <time>2011-03-22T15:00:19Z</time>
      </trkpt>
      <trkpt lat="47.21209" lon="5.42053">
        <ele>201</ele>
        <time>2011-03-22T15:00:39Z</time>
      </trkpt>
      <trkpt lat="47.2128" lon="5.42196">
        <ele>202</ele>
        <time>2011-03-22T15:01:03Z</time>
      </trkpt>
      <trkpt lat="47.21348" lon="5.42335">
        <ele>203</ele>
        <time>2011-03-22T15:01:28Z</time>
      </trkpt>
      <trkpt lat="47.21431" lon="5.42489">
        <ele>202</ele>
        <time>2011-03-22T15:01:55Z</time>
      </trkpt>
      <trkpt lat="47.21512" lon="5.42646">
        <ele>202</ele>
        <time>2011-03-22T15:02:21Z</time>
      </trkpt>
      <trkpt lat="47.21589" lon="5.42793">
        <ele>203</ele>
        <time>2011-03-22T15:02:46Z</time>
      </trkpt>
      <trkpt lat="47.21642" lon="5.42891">
        <ele>203</ele>
        <time>2011-03-22T15:03:02Z</time>
      </trkpt>
      <trkpt lat="47.21697" lon="5.42997">
        <ele>203</ele>
        <time>2011-03-22T15:03:22Z</time>
      </trkpt>
      <trkpt lat="47.21775" lon="5.43146">
        <ele>203</ele>
        <time>2011-03-22T15:03:47Z</time>
      </trkpt>
      <trkpt lat="47.21861" lon="5.4331">
        <ele>202</ele>
        <time>2011-03-22T15:04:13Z</time>
      </trkpt>
      <trkpt lat="47.21954" lon="5.43488">
        <ele>199</ele>
        <time>2011-03-22T15:04:39Z</time>
      </trkpt>
      <trkpt lat="47.22042" lon="5.43653">
        <ele>198</ele>
        <time>2011-03-22T15:05:01Z</time>
      </trkpt>
      <trkpt lat="47.22089" lon="5.43745">
        <ele>201</ele>
        <time>2011-03-22T15:05:17Z</time>
      </trkpt>
      <trkpt lat="47.22141" lon="5.43843">
        <ele>204</ele>
        <time>2011-03-22T15:05:34Z</time>
      </trkpt>
      <trkpt lat="47.22238" lon="5.44034">
        <ele>204</ele>
        <time>2011-03-22T15:06:05Z</time>
      </trkpt>
      <trkpt lat="47.22291" lon="5.4414">
        <ele>202</ele>
        <time>2011-03-22T15:06:21Z</time>
      </trkpt>
      <trkpt lat="47.223" lon="5.44156">
        <ele>203</ele>
        <time>2011-03-22T15:06:24Z</time>
      </trkpt>
      <trkpt lat="47.22393" lon="5.44335">
        <ele>204</ele>
        <time>2011-03-22T15:06:54Z</time>
      </trkpt>
      <trkpt lat="47.22481" lon="5.44501">
        <ele>204</ele>
        <time>2011-03-22T15:07:22Z</time>
      </trkpt>
      <trkpt lat="47.2255" lon="5.44634">
        <ele>204</ele>
        <time>2011-03-22T15:07:45Z</time>
      </trkpt>
      <trkpt lat="47.22625" lon="5.44785">
        <ele>203</ele>
        <time>2011-03-22T15:08:08Z</time>
      </trkpt>
      <trkpt lat="47.2267" lon="5.44903">
        <ele>203</ele>
        <time>2011-03-22T15:08:27Z</time>
      </trkpt>
      <trkpt lat="47.22714" lon="5.45011">
        <ele>202</ele>
        <time>2011-03-22T15:08:45Z</time>
      </trkpt>
      <trkpt lat="47.22762" lon="5.45135">
        <ele>200</ele>
        <time>2011-03-22T15:09:02Z</time>
      </trkpt>
      <trkpt lat="47.22817" lon="5.4528">
        <ele>197</ele>
        <time>2011-03-22T15:09:17Z</time>
      </trkpt>
      <trkpt lat="47.2289" lon="5.45479">
        <ele>200</ele>
        <time>2011-03-22T15:09:40Z</time>
      </trkpt>
      <trkpt lat="47.22901" lon="5.45512">
        <ele>199</ele>
        <time>2011-03-22T15:09:45Z</time>
      </trkpt>
      <trkpt lat="47.22926" lon="5.45578">
        <ele>202</ele>
        <time>2011-03-22T15:09:55Z</time>
      </trkpt>
      <trkpt lat="47.22981" lon="5.45723">
        <ele>205</ele>
        <time>2011-03-22T15:10:19Z</time>
      </trkpt>
      <trkpt lat="47.22991" lon="5.45749">
        <ele>203</ele>
        <time>2011-03-22T15:10:23Z</time>
      </trkpt>
      <trkpt lat="47.23025" lon="5.45839">
        <ele>200</ele>
        <time>2011-03-22T15:10:35Z</time>
      </trkpt>
      <trkpt lat="47.23101" lon="5.46037">
        <ele>199</ele>
        <time>2011-03-22T15:10:58Z</time>
      </trkpt>
      <trkpt lat="47.23128" lon="5.4611">
        <ele>202</ele>
        <time>2011-03-22T15:11:09Z</time>
      </trkpt>
      <trkpt lat="47.23162" lon="5.46201">
        <ele>205</ele>
        <time>2011-03-22T15:11:23Z</time>
      </trkpt>
      <trkpt lat="47.23211" lon="5.46336">
        <ele>207</ele>
        <time>2011-03-22T15:11:44Z</time>
      </trkpt>
      <trkpt lat="47.23245" lon="5.46425">
        <ele>207</ele>
        <time>2011-03-22T15:12:02Z</time>
      </trkpt>
      <trkpt lat="47.23298" lon="5.46565">
        <ele>206</ele>
        <time>2011-03-22T15:12:28Z</time>
      </trkpt>
      <trkpt lat="47.23309" lon="5.46595">
        <ele>206</ele>
        <time>2011-03-22T15:12:33Z</time>
      </trkpt>
      <trkpt lat="47.23317" lon="5.46614">
        <ele>205</ele>
        <time>2011-03-22T15:12:36Z</time>
      </trkpt>
      <trkpt lat="47.23352" lon="5.46708">
        <ele>202</ele>
        <time>2011-03-22T15:12:48Z</time>
      </trkpt>
      <trkpt lat="47.23356" lon="5.46719">
        <ele>202</ele>
        <time>2011-03-22T15:12:49Z</time>
      </trkpt>
      <trkpt lat="47.2338" lon="5.46781">
        <ele>200</ele>
        <time>2011-03-22T15:12:55Z</time>
      </trkpt>
      <trkpt lat="47.23407" lon="5.46852">
        <ele>200</ele>
        <time>2011-03-22T15:13:05Z</time>
      </trkpt>
      <trkpt lat="47.23416" lon="5.46877">
        <ele>201</ele>
        <time>2011-03-22T15:13:10Z</time>
      </trkpt>
      <trkpt lat="47.23421" lon="5.46884">
        <ele>201</ele>
        <time>2011-03-22T15:13:13Z</time>
      </trkpt>
      <trkpt lat="47.23437" lon="5.46933">
        <ele>205</ele>
        <time>2011-03-22T15:13:27Z</time>
      </trkpt>
      <trkpt lat="47.2346" lon="5.46994">
        <ele>207</ele>
        <time>2011-03-22T15:13:44Z</time>
      </trkpt>
      <trkpt lat="47.2349" lon="5.47073">
        <ele>205</ele>
        <time>2011-03-22T15:14:00Z</time>
      </trkpt>
      <trkpt lat="47.23493" lon="5.47079">
        <ele>205</ele>
        <time>2011-03-22T15:14:01Z</time>
      </trkpt>
      <trkpt lat="47.23523" lon="5.47156">
        <ele>202</ele>
        <time>2011-03-22T15:14:10Z</time>
      </trkpt>
      <trkpt lat="47.23532" lon="5.47177">
        <ele>201</ele>
        <time>2011-03-22T15:14:12Z</time>
      </trkpt>
      <trkpt lat="47.23554" lon="5.47235">
        <ele>198</ele>
        <time>2011-03-22T15:14:17Z</time>
      </trkpt>
      <trkpt lat="47.23559" lon="5.47247">
        <ele>198</ele>
        <time>2011-03-22T15:14:18Z</time>
      </trkpt>
      <trkpt lat="47.23596" lon="5.47345">
        <ele>200</ele>
        <time>2011-03-22T15:14:29Z</time>
      </trkpt>
      <trkpt lat="47.23623" lon="5.47415">
        <ele>203</ele>
        <time>2011-03-22T15:14:42Z</time>
      </trkpt>
      <trkpt lat="47.23627" lon="5.47426">
        <ele>204</ele>
        <time>2011-03-22T15:14:44Z</time>
      </trkpt>
      <trkpt lat="47.23636" lon="5.47449">
        <ele>205</ele>
        <time>2011-03-22T15:14:49Z</time>
      </trkpt>
      <trkpt lat="47.23656" lon="5.47503">
        <ele>206</ele>
        <time>2011-03-22T15:15:00Z</time>
      </trkpt>
      <trkpt lat="47.23672" lon="5.47548">
        <ele>206</ele>
        <time>2011-03-22T15:15:08Z</time>
      </trkpt>
      <trkpt lat="47.23709" lon="5.47647">
        <ele>203</ele>
        <time>2011-03-22T15:15:20Z</time>
      </trkpt>
      <trkpt lat="47.23767" lon="5.47799">
        <ele>202</ele>
        <time>2011-03-22T15:15:38Z</time>
      </trkpt>
      <trkpt lat="47.23815" lon="5.47923">
        <ele>199</ele>
        <time>2011-03-22T15:15:55Z</time>
      </trkpt>
      <trkpt lat="47.23859" lon="5.48046">
        <ele>200</ele>
        <time>2011-03-22T15:16:12Z</time>
      </trkpt>
      <trkpt lat="47.2391" lon="5.48185">
        <ele>203</ele>
        <time>2011-03-22T15:16:33Z</time>
      </trkpt>
      <trkpt lat="47.23963" lon="5.48319">
        <ele>205</ele>
        <time>2011-03-22T15:16:54Z</time>
      </trkpt>
      <trkpt lat="47.23969" lon="5.4833">
        <ele>205</ele>
        <time>2011-03-22T15:16:56Z</time>
      </trkpt>
      <trkpt lat="47.23979" lon="5.48345">
        <ele>205</ele>
        <time>2011-03-22T15:16:59Z</time>
      </trkpt>
      <trkpt lat="47.24022" lon="5.48401">
        <ele>205</ele>
        <time>2011-03-22T15:17:14Z</time>
      </trkpt>
      <trkpt lat="47.241" lon="5.48501">
        <ele>207</ele>
        <time>2011-03-22T15:17:37Z</time>
      </trkpt>
      <trkpt lat="47.24111" lon="5.48514">
        <ele>208</ele>
        <time>2011-03-22T15:17:40Z</time>
      </trkpt>
      <trkpt lat="47.24172" lon="5.48591">
        <ele>209</ele>
        <time>2011-03-22T15:17:59Z</time>
      </trkpt>
      <trkpt lat="47.24258" lon="5.48697">
        <ele>210</ele>
        <time>2011-03-22T15:18:23Z</time>
      </trkpt>
      <trkpt lat="47.24291" lon="5.48742">
        <ele>211</ele>
        <time>2011-03-22T15:18:32Z</time>
      </trkpt>
      <trkpt lat="47.24306" lon="5.48761">
        <ele>210</ele>
        <time>2011-03-22T15:18:36Z</time>
      </trkpt>
      <trkpt lat="47.24398" lon="5.48886">
        <ele>207</ele>
        <time>2011-03-22T15:18:56Z</time>
      </trkpt>
      <trkpt lat="47.24483" lon="5.49001">
        <ele>204</ele>
        <time>2011-03-22T15:19:14Z</time>
      </trkpt>
      <trkpt lat="47.24533" lon="5.49069">
        <ele>206</ele>
        <time>2011-03-22T15:19:28Z</time>
      </trkpt>
      <trkpt lat="47.2457" lon="5.49114">
        <ele>209</ele>
        <time>2011-03-22T15:19:41Z</time>
      </trkpt>
      <trkpt lat="47.2461" lon="5.49171">
        <ele>210</ele>
        <time>2011-03-22T15:19:56Z</time>
      </trkpt>
      <trkpt lat="47.24679" lon="5.49256">
        <ele>211</ele>
        <time>2011-03-22T15:20:20Z</time>
      </trkpt>
      <trkpt lat="47.24764" lon="5.49368">
        <ele>211</ele>
        <time>2011-03-22T15:20:48Z</time>
      </trkpt>
      <trkpt lat="47.2483" lon="5.49456">
        <ele>211</ele>
        <time>2011-03-22T15:21:08Z</time>
      </trkpt>
      <trkpt lat="47.24882" lon="5.49523">
        <ele>207</ele>
        <time>2011-03-22T15:21:20Z</time>
      </trkpt>
      <trkpt lat="47.24956" lon="5.49619">
        <ele>206</ele>
        <time>2011-03-22T15:21:38Z</time>
      </trkpt>
      <trkpt lat="47.25002" lon="5.49678">
        <ele>208</ele>
        <time>2011-03-22T15:21:52Z</time>
      </trkpt>
      <trkpt lat="47.25038" lon="5.4974">
        <ele>208</ele>
        <time>2011-03-22T15:22:05Z</time>
      </trkpt>
      <trkpt lat="47.2508" lon="5.49831">
        <ele>206</ele>
        <time>2011-03-22T15:22:20Z</time>
      </trkpt>
      <trkpt lat="47.25149" lon="5.49977">
        <ele>204</ele>
        <time>2011-03-22T15:22:42Z</time>
      </trkpt>
      <trkpt lat="47.2522" lon="5.50131">
        <ele>206</ele>
        <time>2011-03-22T15:23:07Z</time>
      </trkpt>
      <trkpt lat="47.25244" lon="5.50185">
        <ele>208</ele>
        <time>2011-03-22T15:23:17Z</time>
      </trkpt>
      <trkpt lat="47.25276" lon="5.50252">
        <ele>211</ele>
        <time>2011-03-22T15:23:32Z</time>
      </trkpt>
      <trkpt lat="47.25306" lon="5.50317">
        <ele>212</ele>
        <time>2011-03-22T15:23:48Z</time>
      </trkpt>
      <trkpt lat="47.25333" lon="5.50375">
        <ele>213</ele>
        <time>2011-03-22T15:24:02Z</time>
      </trkpt>
      <trkpt lat="47.25386" lon="5.50487">
        <ele>214</ele>
        <time>2011-03-22T15:24:26Z</time>
      </trkpt>
      <trkpt lat="47.25421" lon="5.50562">
        <ele>214</ele>
        <time>2011-03-22T15:24:42Z</time>
      </trkpt>
      <trkpt lat="47.25472" lon="5.5067">
        <ele>211</ele>
        <time>2011-03-22T15:25:00Z</time>
      </trkpt>
      <trkpt lat="47.25519" lon="5.50768">
        <ele>208</ele>
        <time>2011-03-22T15:25:12Z</time>
      </trkpt>
      <trkpt lat="47.25606" lon="5.50951">
        <ele>205</ele>
        <time>2011-03-22T15:25:35Z</time>
      </trkpt>
      <trkpt lat="47.25678" lon="5.51104">
        <ele>204</ele>
        <time>2011-03-22T15:25:55Z</time>
      </trkpt>
      <trkpt lat="47.25716" lon="5.51186">
        <ele>208</ele>
        <time>2011-03-22T15:26:08Z</time>
      </trkpt>
      <trkpt lat="47.2579" lon="5.51345">
        <ele>210</ele>
        <time>2011-03-22T15:26:36Z</time>
      </trkpt>
      <trkpt lat="47.25853" lon="5.51481">
        <ele>209</ele>
        <time>2011-03-22T15:27:01Z</time>
      </trkpt>
      <trkpt lat="47.25888" lon="5.5156">
        <ele>205</ele>
        <time>2011-03-22T15:27:14Z</time>
      </trkpt>
      <trkpt lat="47.25932" lon="5.5167">
        <ele>207</ele>
        <time>2011-03-22T15:27:30Z</time>
      </trkpt>
      <trkpt lat="47.25975" lon="5.51693">
        <ele>206</ele>
        <time>2011-03-22T15:27:43Z</time>
      </trkpt>
      <trkpt lat="47.25983" lon="5.51686">
        <ele>205</ele>
        <time>2011-03-22T15:27:46Z</time>
      </trkpt>
      <trkpt lat="47.25981" lon="5.5169">
        <ele>205</ele>
        <time>2011-03-22T15:27:57Z</time>
      </trkpt>
      <trkpt lat="47.26015" lon="5.51667">
        <ele>206</ele>
        <time>2011-03-22T15:28:17Z</time>
      </trkpt>
      <trkpt lat="47.26039" lon="5.51697">
        <ele>207</ele>
        <time>2011-03-22T15:28:33Z</time>
      </trkpt>
      <trkpt lat="47.26064" lon="5.51762">
        <ele>209</ele>
        <time>2011-03-22T15:28:51Z</time>
      </trkpt>
      <trkpt lat="47.26086" lon="5.51817">
        <ele>209</ele>
        <time>2011-03-22T15:29:05Z</time>
      </trkpt>
      <trkpt lat="47.26098" lon="5.51877">
        <ele>209</ele>
        <time>2011-03-22T15:29:21Z</time>
      </trkpt>
      <trkpt lat="47.26107" lon="5.51983">
        <ele>210</ele>
        <time>2011-03-22T15:29:42Z</time>
      </trkpt>
      <trkpt lat="47.2611" lon="5.5208">
        <ele>212</ele>
        <time>2011-03-22T15:30:01Z</time>
      </trkpt>
      <trkpt lat="47.26099" lon="5.52177">
        <ele>211</ele>
        <time>2011-03-22T15:30:20Z</time>
      </trkpt>
      <trkpt lat="47.26084" lon="5.52325">
        <ele>213</ele>
        <time>2011-03-22T15:30:47Z</time>
      </trkpt>
      <trkpt lat="47.26071" lon="5.52436">
        <ele>214</ele>
        <time>2011-03-22T15:31:06Z</time>
      </trkpt>
      <trkpt lat="47.26061" lon="5.52515">
        <ele>217</ele>
        <time>2011-03-22T15:31:21Z</time>
      </trkpt>
      <trkpt lat="47.26055" lon="5.52584">
        <ele>219</ele>
        <time>2011-03-22T15:31:36Z</time>
      </trkpt>
      <trkpt lat="47.26046" lon="5.52672">
        <ele>222</ele>
        <time>2011-03-22T15:31:54Z</time>
      </trkpt>
      <trkpt lat="47.26042" lon="5.52729">
        <ele>224</ele>
        <time>2011-03-22T15:32:07Z</time>
      </trkpt>
      <trkpt lat="47.26031" lon="5.52797">
        <ele>224</ele>
        <time>2011-03-22T15:32:21Z</time>
      </trkpt>
      <trkpt lat="47.26017" lon="5.52931">
        <ele>227</ele>
        <time>2011-03-22T15:32:44Z</time>
      </trkpt>
      <trkpt lat="47.26002" lon="5.53064">
        <ele>229</ele>
        <time>2011-03-22T15:33:07Z</time>
      </trkpt>
      <trkpt lat="47.26" lon="5.53176">
        <ele>228</ele>
        <time>2011-03-22T15:33:25Z</time>
      </trkpt>
      <trkpt lat="47.26004" lon="5.53218">
        <ele>227</ele>
        <time>2011-03-22T15:33:30Z</time>
      </trkpt>
      <trkpt lat="47.26009" lon="5.53259">
        <ele>227</ele>
        <time>2011-03-22T15:33:35Z</time>
      </trkpt>
      <trkpt lat="47.26022" lon="5.53419">
        <ele>225</ele>
        <time>2011-03-22T15:33:57Z</time>
      </trkpt>
      <trkpt lat="47.2604" lon="5.536">
        <ele>227</ele>
        <time>2011-03-22T15:34:25Z</time>
      </trkpt>
      <trkpt lat="47.26057" lon="5.53721">
        <ele>229</ele>
        <time>2011-03-22T15:34:46Z</time>
      </trkpt>
      <trkpt lat="47.26087" lon="5.53841">
        <ele>231</ele>
        <time>2011-03-22T15:35:07Z</time>
      </trkpt>
      <trkpt lat="47.26113" lon="5.53944">
        <ele>235</ele>
        <time>2011-03-22T15:35:25Z</time>
      </trkpt>
      <trkpt lat="47.26128" lon="5.53996">
        <ele>235</ele>
        <time>2011-03-22T15:35:41Z</time>
      </trkpt>
      <trkpt lat="47.2614" lon="5.54046">
        <ele>235</ele>
        <time>2011-03-22T15:35:57Z</time>
      </trkpt>
      <trkpt lat="47.26145" lon="5.54062">
        <ele>235</ele>
        <time>2011-03-22T15:36:05Z</time>
      </trkpt>
      <trkpt lat="47.26163" lon="5.54139">
        <ele>235</ele>
        <time>2011-03-22T15:36:23Z</time>
      </trkpt>
      <trkpt lat="47.26198" lon="5.54272">
        <ele>234</ele>
        <time>2011-03-22T15:36:42Z</time>
      </trkpt>
      <trkpt lat="47.26205" lon="5.54311">
        <ele>234</ele>
        <time>2011-03-22T15:36:47Z</time>
      </trkpt>
      <trkpt lat="47.26203" lon="5.54359">
        <ele>235</ele>
        <time>2011-03-22T15:36:53Z</time>
      </trkpt>
      <trkpt lat="47.26195" lon="5.54389">
        <ele>235</ele>
        <time>2011-03-22T15:36:57Z</time>
      </trkpt>
      <trkpt lat="47.26201" lon="5.54437">
        <ele>235</ele>
        <time>2011-03-22T15:37:05Z</time>
      </trkpt>
      <trkpt lat="47.2621" lon="5.54456">
        <ele>236</ele>
        <time>2011-03-22T15:37:17Z</time>
      </trkpt>
      <trkpt lat="47.26229" lon="5.54469">
        <ele>236</ele>
        <time>2011-03-22T15:38:07Z</time>
      </trkpt>
      <trkpt lat="47.26265" lon="5.54482">
        <ele>236</ele>
        <time>2011-03-22T15:38:16Z</time>
      </trkpt>
      <trkpt lat="47.26307" lon="5.54531">
        <ele>235</ele>
        <time>2011-03-22T15:38:28Z</time>
      </trkpt>
      <trkpt lat="47.26371" lon="5.54641">
        <ele>235</ele>
        <time>2011-03-22T15:38:50Z</time>
      </trkpt>
      <trkpt lat="47.26436" lon="5.54753">
        <ele>234</ele>
        <time>2011-03-22T15:39:10Z</time>
      </trkpt>
      <trkpt lat="47.26474" lon="5.54819">
        <ele>231</ele>
        <time>2011-03-22T15:39:18Z</time>
      </trkpt>
      <trkpt lat="47.26517" lon="5.54891">
        <ele>227</ele>
        <time>2011-03-22T15:39:26Z</time>
      </trkpt>
      <trkpt lat="47.26528" lon="5.5491">
        <ele>227</ele>
        <time>2011-03-22T15:39:28Z</time>
      </trkpt>
      <trkpt lat="47.2657" lon="5.54983">
        <ele>223</ele>
        <time>2011-03-22T15:39:36Z</time>
      </trkpt>
      <trkpt lat="47.26629" lon="5.55083">
        <ele>220</ele>
        <time>2011-03-22T15:39:47Z</time>
      </trkpt>
      <trkpt lat="47.26655" lon="5.55128">
        <ele>218</ele>
        <time>2011-03-22T15:39:52Z</time>
      </trkpt>
      <trkpt lat="47.2672" lon="5.55238">
        <ele>215</ele>
        <time>2011-03-22T15:40:05Z</time>
      </trkpt>
      <trkpt lat="47.26844" lon="5.55451">
        <ele>213</ele>
        <time>2011-03-22T15:40:33Z</time>
      </trkpt>
      <trkpt lat="47.26881" lon="5.55513">
        <ele>212</ele>
        <time>2011-03-22T15:40:42Z</time>
      </trkpt>
      <trkpt lat="47.26903" lon="5.55537">
        <ele>212</ele>
        <time>2011-03-22T15:40:47Z</time>
      </trkpt>
      <trkpt lat="47.26928" lon="5.55548">
        <ele>212</ele>
        <time>2011-03-22T15:40:52Z</time>
      </trkpt>
      <trkpt lat="47.26986" lon="5.55543">
        <ele>212</ele>
        <time>2011-03-22T15:41:03Z</time>
      </trkpt>
      <trkpt lat="47.27039" lon="5.55533">
        <ele>211</ele>
        <time>2011-03-22T15:41:12Z</time>
      </trkpt>
      <trkpt lat="47.27148" lon="5.55557">
        <ele>209</ele>
        <time>2011-03-22T15:41:29Z</time>
      </trkpt>
      <trkpt lat="47.27161" lon="5.55563">
        <ele>209</ele>
        <time>2011-03-22T15:41:31Z</time>
      </trkpt>
      <trkpt lat="47.27178" lon="5.5557">
        <ele>208</ele>
        <time>2011-03-22T15:41:34Z</time>
      </trkpt>
      <trkpt lat="47.27221" lon="5.5564">
        <ele>206</ele>
        <time>2011-03-22T15:41:44Z</time>
      </trkpt>
      <trkpt lat="47.27223" lon="5.55659">
        <ele>205</ele>
        <time>2011-03-22T15:41:46Z</time>
      </trkpt>
      <trkpt lat="47.27193" lon="5.5579">
        <ele>203</ele>
        <time>2011-03-22T15:42:00Z</time>
      </trkpt>
      <trkpt lat="47.27154" lon="5.55951">
        <ele>201</ele>
        <time>2011-03-22T15:42:17Z</time>
      </trkpt>
      <trkpt lat="47.27153" lon="5.55971">
        <ele>201</ele>
        <time>2011-03-22T15:42:19Z</time>
      </trkpt>
      <trkpt lat="47.27161" lon="5.5602">
        <ele>200</ele>
        <time>2011-03-22T15:42:24Z</time>
      </trkpt>
      <trkpt lat="47.27217" lon="5.56207">
        <ele>197</ele>
        <time>2011-03-22T15:42:45Z</time>
      </trkpt>
      <trkpt lat="47.27258" lon="5.56302">
        <ele>197</ele>
        <time>2011-03-22T15:42:59Z</time>
      </trkpt>
      <trkpt lat="47.27266" lon="5.56313">
        <ele>197</ele>
        <time>2011-03-22T15:43:01Z</time>
      </trkpt>
      <trkpt lat="47.27275" lon="5.56323">
        <ele>196</ele>
        <time>2011-03-22T15:43:03Z</time>
      </trkpt>
      <trkpt lat="47.27314" lon="5.56345">
        <ele>196</ele>
        <time>2011-03-22T15:43:11Z</time>
      </trkpt>
      <trkpt lat="47.27374" lon="5.56374">
        <ele>196</ele>
        <time>2011-03-22T15:43:27Z</time>
      </trkpt>
      <trkpt lat="47.27374" lon="5.56373">
        <ele>196</ele>
        <time>2011-03-22T15:43:46Z</time>
      </trkpt>
      <trkpt lat="47.27376" lon="5.56379">
        <ele>196</ele>
        <time>2011-03-22T15:43:53Z</time>
      </trkpt>
      <trkpt lat="47.27415" lon="5.56387">
        <ele>197</ele>
        <time>2011-03-22T15:44:04Z</time>
      </trkpt>
      <trkpt lat="47.27491" lon="5.56419">
        <ele>198</ele>
        <time>2011-03-22T15:44:20Z</time>
      </trkpt>
      <trkpt lat="47.27573" lon="5.56457">
        <ele>198</ele>
        <time>2011-03-22T15:44:37Z</time>
      </trkpt>
      <trkpt lat="47.2765" lon="5.56491">
        <ele>198</ele>
        <time>2011-03-22T15:44:53Z</time>
      </trkpt>
      <trkpt lat="47.27682" lon="5.56509">
        <ele>198</ele>
        <time>2011-03-22T15:44:59Z</time>
      </trkpt>
      <trkpt lat="47.27715" lon="5.56526">
        <ele>198</ele>
        <time>2011-03-22T15:45:12Z</time>
      </trkpt>
      <trkpt lat="47.27716" lon="5.56531">
        <ele>198</ele>
        <time>2011-03-22T15:45:24Z</time>
      </trkpt>
      <trkpt lat="47.27704" lon="5.56566">
        <ele>196</ele>
        <time>2011-03-22T15:45:30Z</time>
      </trkpt>
      <trkpt lat="47.27679" lon="5.56616">
        <ele>195</ele>
        <time>2011-03-22T15:45:41Z</time>
      </trkpt>
      <trkpt lat="47.27679" lon="5.56617">
        <ele>195</ele>
        <time>2011-03-22T15:45:58Z</time>
      </trkpt>
      <trkpt lat="47.27677" lon="5.56617">
        <ele>195</ele>
        <time>2011-03-22T15:46:46Z</time>
      </trkpt>
      <trkpt lat="47.27675" lon="5.56619">
        <ele>196</ele>
        <time>2011-03-22T15:50:24Z</time>
      </trkpt>
      <trkpt lat="47.27683" lon="5.56627">
        <ele>196</ele>
        <time>2011-03-22T15:50:41Z</time>
      </trkpt>
      <trkpt lat="47.27689" lon="5.56637">
        <ele>197</ele>
        <time>2011-03-22T15:52:04Z</time>
      </trkpt>
      <trkpt lat="47.27677" lon="5.56624">
        <ele>196</ele>
        <time>2011-03-22T15:52:47Z</time>
      </trkpt>
      <trkpt lat="47.27672" lon="5.56623">
        <ele>196</ele>
        <time>2011-03-22T15:53:04Z</time>
      </trkpt>
      <trkpt lat="47.27675" lon="5.56619">
        <ele>196</ele>
        <time>2011-03-22T15:53:24Z</time>
      </trkpt>
      <trkpt lat="47.27674" lon="5.56617">
        <ele>196</ele>
        <time>2011-03-22T15:55:16Z</time>
      </trkpt>
      <trkpt lat="47.27684" lon="5.56601">
        <ele>196</ele>
        <time>2011-03-22T15:55:26Z</time>
      </trkpt>
      <trkpt lat="47.27715" lon="5.56545">
        <ele>197</ele>
        <time>2011-03-22T15:55:41Z</time>
      </trkpt>
      <trkpt lat="47.27737" lon="5.56538">
        <ele>199</ele>
        <time>2011-03-22T15:55:51Z</time>
      </trkpt>
      <trkpt lat="47.27785" lon="5.5656">
        <ele>199</ele>
        <time>2011-03-22T15:56:05Z</time>
      </trkpt>
      <trkpt lat="47.27788" lon="5.56601">
        <ele>197</ele>
        <time>2011-03-22T15:56:11Z</time>
      </trkpt>
      <trkpt lat="47.27795" lon="5.5669">
        <ele>196</ele>
        <time>2011-03-22T15:56:22Z</time>
      </trkpt>
      <trkpt lat="47.27821" lon="5.56778">
        <ele>196</ele>
        <time>2011-03-22T15:56:36Z</time>
      </trkpt>
      <trkpt lat="47.2783" lon="5.568">
        <ele>196</ele>
        <time>2011-03-22T15:56:40Z</time>
      </trkpt>
      <trkpt lat="47.27854" lon="5.56879">
        <ele>196</ele>
        <time>2011-03-22T15:56:55Z</time>
      </trkpt>
      <trkpt lat="47.27863" lon="5.5689">
        <ele>197</ele>
        <time>2011-03-22T15:57:00Z</time>
      </trkpt>
      <trkpt lat="47.27852" lon="5.56936">
        <ele>198</ele>
        <time>2011-03-22T15:57:11Z</time>
      </trkpt>
      <trkpt lat="47.27824" lon="5.57022">
        <ele>197</ele>
        <time>2011-03-22T15:57:24Z</time>
      </trkpt>
      <trkpt lat="47.27788" lon="5.57075">
        <ele>197</ele>
        <time>2011-03-22T15:57:34Z</time>
      </trkpt>
      <trkpt lat="47.27713" lon="5.5712">
        <ele>197</ele>
        <time>2011-03-22T15:57:49Z</time>
      </trkpt>
      <trkpt lat="47.2768" lon="5.57161">
        <ele>197</ele>
        <time>2011-03-22T15:57:57Z</time>
      </trkpt>
      <trkpt lat="47.27671" lon="5.57202">
        <ele>197</ele>
        <time>2011-03-22T15:58:03Z</time>
      </trkpt>
      <trkpt lat="47.27649" lon="5.57271">
        <ele>197</ele>
        <time>2011-03-22T15:58:14Z</time>
      </trkpt>
      <trkpt lat="47.27601" lon="5.57328">
        <ele>199</ele>
        <time>2011-03-22T15:58:29Z</time>
      </trkpt>
      <trkpt lat="47.27574" lon="5.57401">
        <ele>201</ele>
        <time>2011-03-22T15:58:43Z</time>
      </trkpt>
      <trkpt lat="47.27571" lon="5.57419">
        <ele>202</ele>
        <time>2011-03-22T15:58:46Z</time>
      </trkpt>
      <trkpt lat="47.27558" lon="5.57498">
        <ele>205</ele>
        <time>2011-03-22T15:59:01Z</time>
      </trkpt>
      <trkpt lat="47.2755" lon="5.57548">
        <ele>210</ele>
        <time>2011-03-22T15:59:13Z</time>
      </trkpt>
      <trkpt lat="47.27534" lon="5.57613">
        <ele>213</ele>
        <time>2011-03-22T15:59:29Z</time>
      </trkpt>
      <trkpt lat="47.27521" lon="5.57662">
        <ele>215</ele>
        <time>2011-03-22T15:59:41Z</time>
      </trkpt>
      <trkpt lat="47.27519" lon="5.57671">
        <ele>216</ele>
        <time>2011-03-22T15:59:43Z</time>
      </trkpt>
      <trkpt lat="47.27503" lon="5.57734">
        <ele>220</ele>
        <time>2011-03-22T15:59:57Z</time>
      </trkpt>
      <trkpt lat="47.2749" lon="5.57769">
        <ele>221</ele>
        <time>2011-03-22T16:00:05Z</time>
      </trkpt>
      <trkpt lat="47.27465" lon="5.57852">
        <ele>224</ele>
        <time>2011-03-22T16:00:26Z</time>
      </trkpt>
      <trkpt lat="47.27448" lon="5.57902">
        <ele>225</ele>
        <time>2011-03-22T16:00:41Z</time>
      </trkpt>
      <trkpt lat="47.27424" lon="5.57968">
        <ele>224</ele>
        <time>2011-03-22T16:00:56Z</time>
      </trkpt>
      <trkpt lat="47.27393" lon="5.5805">
        <ele>224</ele>
        <time>2011-03-22T16:01:13Z</time>
      </trkpt>
      <trkpt lat="47.27355" lon="5.58163">
        <ele>223</ele>
        <time>2011-03-22T16:01:31Z</time>
      </trkpt>
      <trkpt lat="47.27346" lon="5.58187">
        <ele>221</ele>
        <time>2011-03-22T16:01:34Z</time>
      </trkpt>
      <trkpt lat="47.27338" lon="5.58203">
        <ele>220</ele>
        <time>2011-03-22T16:01:36Z</time>
      </trkpt>
      <trkpt lat="47.27303" lon="5.58237">
        <ele>219</ele>
        <time>2011-03-22T16:01:42Z</time>
      </trkpt>
      <trkpt lat="47.2721" lon="5.58275">
        <ele>222</ele>
        <time>2011-03-22T16:01:59Z</time>
      </trkpt>
      <trkpt lat="47.27206" lon="5.58277">
        <ele>222</ele>
        <time>2011-03-22T16:02:00Z</time>
      </trkpt>
      <trkpt lat="47.27145" lon="5.58317">
        <ele>224</ele>
        <time>2011-03-22T16:02:17Z</time>
      </trkpt>
      <trkpt lat="47.27078" lon="5.58391">
        <ele>224</ele>
        <time>2011-03-22T16:02:35Z</time>
      </trkpt>
      <trkpt lat="47.27014" lon="5.58465">
        <ele>224</ele>
        <time>2011-03-22T16:02:54Z</time>
      </trkpt>
      <trkpt lat="47.27007" lon="5.58473">
        <ele>224</ele>
        <time>2011-03-22T16:02:56Z</time>
      </trkpt>
      <trkpt lat="47.26936" lon="5.58568">
        <ele>227</ele>
        <time>2011-03-22T16:03:19Z</time>
      </trkpt>
      <trkpt lat="47.26852" lon="5.58652">
        <ele>228</ele>
        <time>2011-03-22T16:03:43Z</time>
      </trkpt>
      <trkpt lat="47.26773" lon="5.58757">
        <ele>230</ele>
        <time>2011-03-22T16:04:08Z</time>
      </trkpt>
      <trkpt lat="47.2674" lon="5.58813">
        <ele>229</ele>
        <time>2011-03-22T16:04:23Z</time>
      </trkpt>
      <trkpt lat="47.26703" lon="5.58884">
        <ele>228</ele>
        <time>2011-03-22T16:04:38Z</time>
      </trkpt>
      <trkpt lat="47.2668" lon="5.58918">
        <ele>228</ele>
        <time>2011-03-22T16:04:45Z</time>
      </trkpt>
      <trkpt lat="47.26664" lon="5.58936">
        <ele>227</ele>
        <time>2011-03-22T16:04:49Z</time>
      </trkpt>
      <trkpt lat="47.26608" lon="5.59003">
        <ele>224</ele>
        <time>2011-03-22T16:05:00Z</time>
      </trkpt>
      <trkpt lat="47.2656" lon="5.59058">
        <ele>221</ele>
        <time>2011-03-22T16:05:08Z</time>
      </trkpt>
      <trkpt lat="47.26555" lon="5.59066">
        <ele>221</ele>
        <time>2011-03-22T16:05:09Z</time>
      </trkpt>
      <trkpt lat="47.2653" lon="5.59128">
        <ele>218</ele>
        <time>2011-03-22T16:05:16Z</time>
      </trkpt>
      <trkpt lat="47.26517" lon="5.59152">
        <ele>217</ele>
        <time>2011-03-22T16:05:19Z</time>
      </trkpt>
      <trkpt lat="47.26507" lon="5.59167">
        <ele>216</ele>
        <time>2011-03-22T16:05:21Z</time>
      </trkpt>
      <trkpt lat="47.2647" lon="5.59204">
        <ele>214</ele>
        <time>2011-03-22T16:05:27Z</time>
      </trkpt>
      <trkpt lat="47.2642" lon="5.5925">
        <ele>211</ele>
        <time>2011-03-22T16:05:36Z</time>
      </trkpt>
      <trkpt lat="47.26415" lon="5.59254">
        <ele>211</ele>
        <time>2011-03-22T16:05:37Z</time>
      </trkpt>
      <trkpt lat="47.26381" lon="5.5927">
        <ele>207</ele>
        <time>2011-03-22T16:05:47Z</time>
      </trkpt>
      <trkpt lat="47.26375" lon="5.59284">
        <ele>206</ele>
        <time>2011-03-22T16:05:59Z</time>
      </trkpt>
      <trkpt lat="47.26374" lon="5.59315">
        <ele>206</ele>
        <time>2011-03-22T16:06:09Z</time>
      </trkpt>
      <trkpt lat="47.26369" lon="5.59399">
        <ele>208</ele>
        <time>2011-03-22T16:06:24Z</time>
      </trkpt>
      <trkpt lat="47.2636" lon="5.59474">
        <ele>211</ele>
        <time>2011-03-22T16:06:40Z</time>
      </trkpt>
      <trkpt lat="47.2634" lon="5.59592">
        <ele>210</ele>
        <time>2011-03-22T16:06:57Z</time>
      </trkpt>
      <trkpt lat="47.26336" lon="5.59641">
        <ele>208</ele>
        <time>2011-03-22T16:07:04Z</time>
      </trkpt>
      <trkpt lat="47.26322" lon="5.59653">
        <ele>206</ele>
        <time>2011-03-22T16:07:08Z</time>
      </trkpt>
      <trkpt lat="47.26279" lon="5.59654">
        <ele>203</ele>
        <time>2011-03-22T16:07:15Z</time>
      </trkpt>
      <trkpt lat="47.2626" lon="5.59657">
        <ele>201</ele>
        <time>2011-03-22T16:07:18Z</time>
      </trkpt>
      <trkpt lat="47.26224" lon="5.59711">
        <ele>200</ele>
        <time>2011-03-22T16:07:26Z</time>
      </trkpt>
      <trkpt lat="47.26221" lon="5.59737">
        <ele>199</ele>
        <time>2011-03-22T16:07:29Z</time>
      </trkpt>
      <trkpt lat="47.26234" lon="5.59823">
        <ele>199</ele>
        <time>2011-03-22T16:07:41Z</time>
      </trkpt>
      <trkpt lat="47.26228" lon="5.59846">
        <ele>200</ele>
        <time>2011-03-22T16:07:47Z</time>
      </trkpt>
      <trkpt lat="47.26172" lon="5.59868">
        <ele>200</ele>
        <time>2011-03-22T16:08:04Z</time>
      </trkpt>
      <trkpt lat="47.26146" lon="5.59887">
        <ele>200</ele>
        <time>2011-03-22T16:08:12Z</time>
      </trkpt>
      <trkpt lat="47.2612" lon="5.59935">
        <ele>198</ele>
        <time>2011-03-22T16:08:20Z</time>
      </trkpt>
      <trkpt lat="47.26049" lon="5.60063">
        <ele>198</ele>
        <time>2011-03-22T16:08:41Z</time>
      </trkpt>
      <trkpt lat="47.25956" lon="5.60214">
        <ele>198</ele>
        <time>2011-03-22T16:09:05Z</time>
      </trkpt>
      <trkpt lat="47.2588" lon="5.60319">
        <ele>198</ele>
        <time>2011-03-22T16:09:25Z</time>
      </trkpt>
      <trkpt lat="47.25822" lon="5.60391">
        <ele>201</ele>
        <time>2011-03-22T16:09:41Z</time>
      </trkpt>
      <trkpt lat="47.25779" lon="5.60437">
        <ele>204</ele>
        <time>2011-03-22T16:09:54Z</time>
      </trkpt>
      <trkpt lat="47.25769" lon="5.60447">
        <ele>206</ele>
        <time>2011-03-22T16:09:57Z</time>
      </trkpt>
      <trkpt lat="47.25724" lon="5.60502">
        <ele>209</ele>
        <time>2011-03-22T16:10:11Z</time>
      </trkpt>
      <trkpt lat="47.25683" lon="5.60562">
        <ele>212</ele>
        <time>2011-03-22T16:10:25Z</time>
      </trkpt>
      <trkpt lat="47.25653" lon="5.60635">
        <ele>215</ele>
        <time>2011-03-22T16:10:41Z</time>
      </trkpt>
      <trkpt lat="47.25637" lon="5.60701">
        <ele>215</ele>
        <time>2011-03-22T16:10:57Z</time>
      </trkpt>
      <trkpt lat="47.25615" lon="5.60804">
        <ele>215</ele>
        <time>2011-03-22T16:11:15Z</time>
      </trkpt>
      <trkpt lat="47.25596" lon="5.60902">
        <ele>215</ele>
        <time>2011-03-22T16:11:33Z</time>
      </trkpt>
      <trkpt lat="47.25581" lon="5.61042">
        <ele>212</ele>
        <time>2011-03-22T16:11:53Z</time>
      </trkpt>
      <trkpt lat="47.25571" lon="5.61108">
        <ele>211</ele>
        <time>2011-03-22T16:12:02Z</time>
      </trkpt>
      <trkpt lat="47.25565" lon="5.61138">
        <ele>210</ele>
        <time>2011-03-22T16:12:06Z</time>
      </trkpt>
      <trkpt lat="47.25517" lon="5.61276">
        <ele>206</ele>
        <time>2011-03-22T16:12:24Z</time>
      </trkpt>
      <trkpt lat="47.25451" lon="5.61406">
        <ele>203</ele>
        <time>2011-03-22T16:12:41Z</time>
      </trkpt>
      <trkpt lat="47.25388" lon="5.61521">
        <ele>200</ele>
        <time>2011-03-22T16:12:59Z</time>
      </trkpt>
      <trkpt lat="47.25361" lon="5.61571">
        <ele>201</ele>
        <time>2011-03-22T16:13:08Z</time>
      </trkpt>
      <trkpt lat="47.25346" lon="5.61585">
        <ele>201</ele>
        <time>2011-03-22T16:13:12Z</time>
      </trkpt>
      <trkpt lat="47.25332" lon="5.6159">
        <ele>202</ele>
        <time>2011-03-22T16:13:16Z</time>
      </trkpt>
      <trkpt lat="47.25304" lon="5.61601">
        <ele>202</ele>
        <time>2011-03-22T16:13:25Z</time>
      </trkpt>
      <trkpt lat="47.2523" lon="5.61577">
        <ele>204</ele>
        <time>2011-03-22T16:13:47Z</time>
      </trkpt>
      <trkpt lat="47.25178" lon="5.61563">
        <ele>205</ele>
        <time>2011-03-22T16:14:02Z</time>
      </trkpt>
      <trkpt lat="47.25098" lon="5.6159">
        <ele>205</ele>
        <time>2011-03-22T16:14:19Z</time>
      </trkpt>
      <trkpt lat="47.25047" lon="5.61599">
        <ele>205</ele>
        <time>2011-03-22T16:14:32Z</time>
      </trkpt>
      <trkpt lat="47.25043" lon="5.61588">
        <ele>206</ele>
        <time>2011-03-22T16:14:36Z</time>
      </trkpt>
      <trkpt lat="47.25008" lon="5.61537">
        <ele>206</ele>
        <time>2011-03-22T16:14:53Z</time>
      </trkpt>
      <trkpt lat="47.24951" lon="5.61475">
        <ele>206</ele>
        <time>2011-03-22T16:15:11Z</time>
      </trkpt>
      <trkpt lat="47.24819" lon="5.61376">
        <ele>204</ele>
        <time>2011-03-22T16:15:37Z</time>
      </trkpt>
      <trkpt lat="47.24702" lon="5.61294">
        <ele>202</ele>
        <time>2011-03-22T16:15:59Z</time>
      </trkpt>
      <trkpt lat="47.24655" lon="5.61255">
        <ele>202</ele>
        <time>2011-03-22T16:16:09Z</time>
      </trkpt>
      <trkpt lat="47.24645" lon="5.61235">
        <ele>202</ele>
        <time>2011-03-22T16:16:13Z</time>
      </trkpt>
      <trkpt lat="47.24625" lon="5.61118">
        <ele>204</ele>
        <time>2011-03-22T16:16:32Z</time>
      </trkpt>
      <trkpt lat="47.24608" lon="5.61019">
        <ele>207</ele>
        <time>2011-03-22T16:16:47Z</time>
      </trkpt>
      <trkpt lat="47.2459" lon="5.60898">
        <ele>210</ele>
        <time>2011-03-22T16:17:04Z</time>
      </trkpt>
      <trkpt lat="47.24593" lon="5.60774">
        <ele>214</ele>
        <time>2011-03-22T16:17:23Z</time>
      </trkpt>
      <trkpt lat="47.24595" lon="5.60724">
        <ele>212</ele>
        <time>2011-03-22T16:17:33Z</time>
      </trkpt>
      <trkpt lat="47.24601" lon="5.60578">
        <ele>212</ele>
        <time>2011-03-22T16:17:53Z</time>
      </trkpt>
      <trkpt lat="47.24603" lon="5.60521">
        <ele>210</ele>
        <time>2011-03-22T16:18:05Z</time>
      </trkpt>
      <trkpt lat="47.24602" lon="5.60515">
        <ele>211</ele>
        <time>2011-03-22T16:18:07Z</time>
      </trkpt>
      <trkpt lat="47.24591" lon="5.60505">
        <ele>210</ele>
        <time>2011-03-22T16:18:11Z</time>
      </trkpt>
      <trkpt lat="47.24504" lon="5.60418">
        <ele>208</ele>
        <time>2011-03-22T16:18:34Z</time>
      </trkpt>
      <trkpt lat="47.24413" lon="5.60328">
        <ele>206</ele>
        <time>2011-03-22T16:18:50Z</time>
      </trkpt>
      <trkpt lat="47.24317" lon="5.60216">
        <ele>206</ele>
        <time>2011-03-22T16:19:08Z</time>
      </trkpt>
      <trkpt lat="47.24251" lon="5.60123">
        <ele>209</ele>
        <time>2011-03-22T16:19:23Z</time>
      </trkpt>
      <trkpt lat="47.24183" lon="5.60028">
        <ele>213</ele>
        <time>2011-03-22T16:19:38Z</time>
      </trkpt>
      <trkpt lat="47.24142" lon="5.59973">
        <ele>214</ele>
        <time>2011-03-22T16:19:48Z</time>
      </trkpt>
      <trkpt lat="47.24058" lon="5.59858">
        <ele>214</ele>
        <time>2011-03-22T16:20:09Z</time>
      </trkpt>
      <trkpt lat="47.23955" lon="5.59715">
        <ele>213</ele>
        <time>2011-03-22T16:20:32Z</time>
      </trkpt>
      <trkpt lat="47.23928" lon="5.59678">
        <ele>213</ele>
        <time>2011-03-22T16:20:38Z</time>
      </trkpt>
      <trkpt lat="47.23914" lon="5.59662">
        <ele>213</ele>
        <time>2011-03-22T16:20:41Z</time>
      </trkpt>
      <trkpt lat="47.238" lon="5.59481">
        <ele>211</ele>
        <time>2011-03-22T16:21:07Z</time>
      </trkpt>
      <trkpt lat="47.23748" lon="5.59336">
        <ele>212</ele>
        <time>2011-03-22T16:21:23Z</time>
      </trkpt>
      <trkpt lat="47.23685" lon="5.59257">
        <ele>213</ele>
        <time>2011-03-22T16:21:37Z</time>
      </trkpt>
      <trkpt lat="47.23605" lon="5.59145">
        <ele>211</ele>
        <time>2011-03-22T16:21:55Z</time>
      </trkpt>
      <trkpt lat="47.23577" lon="5.59015">
        <ele>210</ele>
        <time>2011-03-22T16:22:08Z</time>
      </trkpt>
      <trkpt lat="47.23544" lon="5.58833">
        <ele>210</ele>
        <time>2011-03-22T16:22:29Z</time>
      </trkpt>
      <trkpt lat="47.23507" lon="5.5869">
        <ele>212</ele>
        <time>2011-03-22T16:22:47Z</time>
      </trkpt>
      <trkpt lat="47.23451" lon="5.5848">
        <ele>210</ele>
        <time>2011-03-22T16:23:10Z</time>
      </trkpt>
      <trkpt lat="47.23444" lon="5.58458">
        <ele>209</ele>
        <time>2011-03-22T16:23:12Z</time>
      </trkpt>
      <trkpt lat="47.23377" lon="5.58263">
        <ele>208</ele>
        <time>2011-03-22T16:23:31Z</time>
      </trkpt>
      <trkpt lat="47.2335" lon="5.58103">
        <ele>207</ele>
        <time>2011-03-22T16:23:45Z</time>
      </trkpt>
      <trkpt lat="47.23356" lon="5.58025">
        <ele>205</ele>
        <time>2011-03-22T16:23:51Z</time>
      </trkpt>
      <trkpt lat="47.23384" lon="5.57853">
        <ele>202</ele>
        <time>2011-03-22T16:24:06Z</time>
      </trkpt>
      <trkpt lat="47.23389" lon="5.57794">
        <ele>201</ele>
        <time>2011-03-22T16:24:11Z</time>
      </trkpt>
      <trkpt lat="47.23371" lon="5.57623">
        <ele>200</ele>
        <time>2011-03-22T16:24:27Z</time>
      </trkpt>
      <trkpt lat="47.23344" lon="5.57422">
        <ele>203</ele>
        <time>2011-03-22T16:24:48Z</time>
      </trkpt>
      <trkpt lat="47.23323" lon="5.57268">
        <ele>206</ele>
        <time>2011-03-22T16:25:07Z</time>
      </trkpt>
      <trkpt lat="47.23301" lon="5.57112">
        <ele>204</ele>
        <time>2011-03-22T16:25:26Z</time>
      </trkpt>
      <trkpt lat="47.23263" lon="5.56955">
        <ele>203</ele>
        <time>2011-03-22T16:25:44Z</time>
      </trkpt>
      <trkpt lat="47.23227" lon="5.56797">
        <ele>205</ele>
        <time>2011-03-22T16:26:02Z</time>
      </trkpt>
      <trkpt lat="47.23212" lon="5.56744">
        <ele>205</ele>
        <time>2011-03-22T16:26:14Z</time>
      </trkpt>
      <trkpt lat="47.23206" lon="5.56691">
        <ele>203</ele>
        <time>2011-03-22T16:26:31Z</time>
      </trkpt>
      <trkpt lat="47.23188" lon="5.56647">
        <ele>203</ele>
        <time>2011-03-22T16:26:43Z</time>
      </trkpt>
      <trkpt lat="47.23164" lon="5.56581">
        <ele>203</ele>
        <time>2011-03-22T16:27:01Z</time>
      </trkpt>
      <trkpt lat="47.23154" lon="5.56543">
        <ele>203</ele>
        <time>2011-03-22T16:27:14Z</time>
      </trkpt>
      <trkpt lat="47.23153" lon="5.56533">
        <ele>203</ele>
        <time>2011-03-22T16:27:18Z</time>
      </trkpt>
      <trkpt lat="47.23151" lon="5.56529">
        <ele>203</ele>
        <time>2011-03-22T16:27:20Z</time>
      </trkpt>
      <trkpt lat="47.23151" lon="5.56516">
        <ele>203</ele>
        <time>2011-03-22T16:27:25Z</time>
      </trkpt>
      <trkpt lat="47.23149" lon="5.56512">
        <ele>203</ele>
        <time>2011-03-22T16:27:27Z</time>
      </trkpt>
      <trkpt lat="47.23156" lon="5.56555">
        <ele>203</ele>
        <time>2011-03-22T16:27:43Z</time>
      </trkpt>
      <trkpt lat="47.23177" lon="5.56614">
        <ele>203</ele>
        <time>2011-03-22T16:27:57Z</time>
      </trkpt>
      <trkpt lat="47.23196" lon="5.56669">
        <ele>203</ele>
        <time>2011-03-22T16:28:09Z</time>
      </trkpt>
      <trkpt lat="47.232" lon="5.56664">
        <ele>203</ele>
        <time>2011-03-22T16:28:13Z</time>
      </trkpt>
      <trkpt lat="47.23182" lon="5.5662">
        <ele>203</ele>
        <time>2011-03-22T16:28:20Z</time>
      </trkpt>
      <trkpt lat="47.23146" lon="5.56483">
        <ele>204</ele>
        <time>2011-03-22T16:28:39Z</time>
      </trkpt>
      <trkpt lat="47.23136" lon="5.56357">
        <ele>204</ele>
        <time>2011-03-22T16:28:56Z</time>
      </trkpt>
      <trkpt lat="47.23108" lon="5.56193">
        <ele>203</ele>
        <time>2011-03-22T16:29:15Z</time>
      </trkpt>
      <trkpt lat="47.23086" lon="5.56068">
        <ele>205</ele>
        <time>2011-03-22T16:29:32Z</time>
      </trkpt>
      <trkpt lat="47.23065" lon="5.55958">
        <ele>208</ele>
        <time>2011-03-22T16:29:48Z</time>
      </trkpt>
      <trkpt lat="47.23026" lon="5.55822">
        <ele>212</ele>
        <time>2011-03-22T16:30:10Z</time>
      </trkpt>
      <trkpt lat="47.22946" lon="5.55684">
        <ele>214</ele>
        <time>2011-03-22T16:30:35Z</time>
      </trkpt>
      <trkpt lat="47.22854" lon="5.55528">
        <ele>213</ele>
        <time>2011-03-22T16:30:57Z</time>
      </trkpt>
      <trkpt lat="47.2274" lon="5.55339">
        <ele>214</ele>
        <time>2011-03-22T16:31:25Z</time>
      </trkpt>
      <trkpt lat="47.2268" lon="5.5524">
        <ele>217</ele>
        <time>2011-03-22T16:31:41Z</time>
      </trkpt>
      <trkpt lat="47.2264" lon="5.55176">
        <ele>220</ele>
        <time>2011-03-22T16:31:53Z</time>
      </trkpt>
      <trkpt lat="47.22588" lon="5.55113">
        <ele>224</ele>
        <time>2011-03-22T16:32:08Z</time>
      </trkpt>
      <trkpt lat="47.22585" lon="5.55109">
        <ele>224</ele>
        <time>2011-03-22T16:32:09Z</time>
      </trkpt>
      <trkpt lat="47.22529" lon="5.55045">
        <ele>228</ele>
        <time>2011-03-22T16:32:26Z</time>
      </trkpt>
      <trkpt lat="47.22499" lon="5.55012">
        <ele>230</ele>
        <time>2011-03-22T16:32:35Z</time>
      </trkpt>
      <trkpt lat="47.22443" lon="5.5494">
        <ele>233</ele>
        <time>2011-03-22T16:32:54Z</time>
      </trkpt>
      <trkpt lat="47.22408" lon="5.54895">
        <ele>236</ele>
        <time>2011-03-22T16:33:06Z</time>
      </trkpt>
      <trkpt lat="47.22352" lon="5.54818">
        <ele>239</ele>
        <time>2011-03-22T16:33:28Z</time>
      </trkpt>
      <trkpt lat="47.22302" lon="5.54753">
        <ele>242</ele>
        <time>2011-03-22T16:33:46Z</time>
      </trkpt>
      <trkpt lat="47.22274" lon="5.54705">
        <ele>245</ele>
        <time>2011-03-22T16:33:57Z</time>
      </trkpt>
      <trkpt lat="47.22248" lon="5.54629">
        <ele>248</ele>
        <time>2011-03-22T16:34:11Z</time>
      </trkpt>
      <trkpt lat="47.22223" lon="5.54461">
        <ele>251</ele>
        <time>2011-03-22T16:34:37Z</time>
      </trkpt>
      <trkpt lat="47.22233" lon="5.54365">
        <ele>252</ele>
        <time>2011-03-22T16:34:54Z</time>
      </trkpt>
      <trkpt lat="47.22241" lon="5.54352">
        <ele>252</ele>
        <time>2011-03-22T16:35:05Z</time>
      </trkpt>
      <trkpt lat="47.22242" lon="5.54352">
        <ele>252</ele>
        <time>2011-03-22T16:36:14Z</time>
      </trkpt>
      <trkpt lat="47.22241" lon="5.54352">
        <ele>252</ele>
        <time>2011-03-22T16:37:02Z</time>
      </trkpt>
      <trkpt lat="47.22242" lon="5.54352">
        <ele>252</ele>
        <time>2011-03-22T16:37:51Z</time>
      </trkpt>
      <trkpt lat="47.22255" lon="5.54325">
        <ele>253</ele>
        <time>2011-03-22T16:38:08Z</time>
      </trkpt>
      <trkpt lat="47.22304" lon="5.54261">
        <ele>257</ele>
        <time>2011-03-22T16:38:19Z</time>
      </trkpt>
      <trkpt lat="47.22372" lon="5.54175">
        <ele>259</ele>
        <time>2011-03-22T16:38:36Z</time>
      </trkpt>
      <trkpt lat="47.22382" lon="5.54157">
        <ele>259</ele>
        <time>2011-03-22T16:38:40Z</time>
      </trkpt>
      <trkpt lat="47.22401" lon="5.54113">
        <ele>258</ele>
        <time>2011-03-22T16:38:53Z</time>
      </trkpt>
      <trkpt lat="47.22409" lon="5.54065">
        <ele>257</ele>
        <time>2011-03-22T16:39:07Z</time>
      </trkpt>
      <trkpt lat="47.22408" lon="5.53948">
        <ele>257</ele>
        <time>2011-03-22T16:39:29Z</time>
      </trkpt>
      <trkpt lat="47.22442" lon="5.53801">
        <ele>257</ele>
        <time>2011-03-22T16:39:51Z</time>
      </trkpt>
      <trkpt lat="47.22446" lon="5.53784">
        <ele>256</ele>
        <time>2011-03-22T16:39:53Z</time>
      </trkpt>
      <trkpt lat="47.22449" lon="5.53757">
        <ele>255</ele>
        <time>2011-03-22T16:39:56Z</time>
      </trkpt>
      <trkpt lat="47.22449" lon="5.53748">
        <ele>255</ele>
        <time>2011-03-22T16:39:57Z</time>
      </trkpt>
      <trkpt lat="47.22418" lon="5.53622">
        <ele>252</ele>
        <time>2011-03-22T16:40:09Z</time>
      </trkpt>
      <trkpt lat="47.22356" lon="5.53485">
        <ele>250</ele>
        <time>2011-03-22T16:40:25Z</time>
      </trkpt>
      <trkpt lat="47.22327" lon="5.5347">
        <ele>252</ele>
        <time>2011-03-22T16:40:31Z</time>
      </trkpt>
      <trkpt lat="47.22302" lon="5.53479">
        <ele>252</ele>
        <time>2011-03-22T16:40:37Z</time>
      </trkpt>
      <trkpt lat="47.22274" lon="5.53451">
        <ele>253</ele>
        <time>2011-03-22T16:40:46Z</time>
      </trkpt>
      <trkpt lat="47.22268" lon="5.53439">
        <ele>252</ele>
        <time>2011-03-22T16:40:48Z</time>
      </trkpt>
      <trkpt lat="47.22196" lon="5.53297">
        <ele>250</ele>
        <time>2011-03-22T16:41:08Z</time>
      </trkpt>
      <trkpt lat="47.22149" lon="5.53182">
        <ele>247</ele>
        <time>2011-03-22T16:41:21Z</time>
      </trkpt>
      <trkpt lat="47.22144" lon="5.53173">
        <ele>246</ele>
        <time>2011-03-22T16:41:22Z</time>
      </trkpt>
      <trkpt lat="47.22118" lon="5.53148">
        <ele>246</ele>
        <time>2011-03-22T16:41:26Z</time>
      </trkpt>
      <trkpt lat="47.21996" lon="5.53053">
        <ele>242</ele>
        <time>2011-03-22T16:41:43Z</time>
      </trkpt>
      <trkpt lat="47.21931" lon="5.52983">
        <ele>239</ele>
        <time>2011-03-22T16:41:52Z</time>
      </trkpt>
      <trkpt lat="47.21899" lon="5.52949">
        <ele>237</ele>
        <time>2011-03-22T16:41:56Z</time>
      </trkpt>
      <trkpt lat="47.21858" lon="5.52905">
        <ele>234</ele>
        <time>2011-03-22T16:42:01Z</time>
      </trkpt>
      <trkpt lat="47.21841" lon="5.52886">
        <ele>233</ele>
        <time>2011-03-22T16:42:03Z</time>
      </trkpt>
      <trkpt lat="47.21805" lon="5.52848">
        <ele>232</ele>
        <time>2011-03-22T16:42:07Z</time>
      </trkpt>
      <trkpt lat="47.21778" lon="5.52798">
        <ele>229</ele>
        <time>2011-03-22T16:42:11Z</time>
      </trkpt>
      <trkpt lat="47.21775" lon="5.52735">
        <ele>227</ele>
        <time>2011-03-22T16:42:15Z</time>
      </trkpt>
      <trkpt lat="47.21779" lon="5.5272">
        <ele>227</ele>
        <time>2011-03-22T16:42:16Z</time>
      </trkpt>
      <trkpt lat="47.21788" lon="5.5269">
        <ele>226</ele>
        <time>2011-03-22T16:42:18Z</time>
      </trkpt>
      <trkpt lat="47.218" lon="5.52647">
        <ele>224</ele>
        <time>2011-03-22T16:42:21Z</time>
      </trkpt>
      <trkpt lat="47.21825" lon="5.52536">
        <ele>222</ele>
        <time>2011-03-22T16:42:29Z</time>
      </trkpt>
      <trkpt lat="47.21805" lon="5.52443">
        <ele>220</ele>
        <time>2011-03-22T16:42:37Z</time>
      </trkpt>
      <trkpt lat="47.21762" lon="5.52362">
        <ele>217</ele>
        <time>2011-03-22T16:42:46Z</time>
      </trkpt>
      <trkpt lat="47.2176" lon="5.523">
        <ele>214</ele>
        <time>2011-03-22T16:42:52Z</time>
      </trkpt>
      <trkpt lat="47.21779" lon="5.52235">
        <ele>212</ele>
        <time>2011-03-22T16:42:58Z</time>
      </trkpt>
      <trkpt lat="47.2179" lon="5.52178">
        <ele>211</ele>
        <time>2011-03-22T16:43:04Z</time>
      </trkpt>
      <trkpt lat="47.2179" lon="5.52117">
        <ele>209</ele>
        <time>2011-03-22T16:43:11Z</time>
      </trkpt>
      <trkpt lat="47.21775" lon="5.52081">
        <ele>207</ele>
        <time>2011-03-22T16:43:18Z</time>
      </trkpt>
      <trkpt lat="47.21717" lon="5.52051">
        <ele>206</ele>
        <time>2011-03-22T16:43:34Z</time>
      </trkpt>
      <trkpt lat="47.21692" lon="5.52036">
        <ele>209</ele>
        <time>2011-03-22T16:43:40Z</time>
      </trkpt>
      <trkpt lat="47.21674" lon="5.5202">
        <ele>209</ele>
        <time>2011-03-22T16:43:45Z</time>
      </trkpt>
      <trkpt lat="47.21654" lon="5.52017">
        <ele>211</ele>
        <time>2011-03-22T16:43:51Z</time>
      </trkpt>
      <trkpt lat="47.21609" lon="5.5198">
        <ele>214</ele>
        <time>2011-03-22T16:44:05Z</time>
      </trkpt>
      <trkpt lat="47.21551" lon="5.51899">
        <ele>214</ele>
        <time>2011-03-22T16:44:23Z</time>
      </trkpt>
      <trkpt lat="47.21536" lon="5.51859">
        <ele>213</ele>
        <time>2011-03-22T16:44:29Z</time>
      </trkpt>
      <trkpt lat="47.21523" lon="5.51698">
        <ele>210</ele>
        <time>2011-03-22T16:44:45Z</time>
      </trkpt>
      <trkpt lat="47.2149" lon="5.51519">
        <ele>208</ele>
        <time>2011-03-22T16:45:02Z</time>
      </trkpt>
      <trkpt lat="47.21422" lon="5.51443">
        <ele>208</ele>
        <time>2011-03-22T16:45:15Z</time>
      </trkpt>
      <trkpt lat="47.2133" lon="5.51361">
        <ele>211</ele>
        <time>2011-03-22T16:45:33Z</time>
      </trkpt>
      <trkpt lat="47.2126" lon="5.51258">
        <ele>212</ele>
        <time>2011-03-22T16:45:51Z</time>
      </trkpt>
      <trkpt lat="47.21228" lon="5.51187">
        <ele>214</ele>
        <time>2011-03-22T16:46:01Z</time>
      </trkpt>
      <trkpt lat="47.21148" lon="5.50994">
        <ele>216</ele>
        <time>2011-03-22T16:46:27Z</time>
      </trkpt>
      <trkpt lat="47.21069" lon="5.50823">
        <ele>219</ele>
        <time>2011-03-22T16:46:48Z</time>
      </trkpt>
      <trkpt lat="47.21018" lon="5.50726">
        <ele>222</ele>
        <time>2011-03-22T16:47:00Z</time>
      </trkpt>
      <trkpt lat="47.20982" lon="5.50668">
        <ele>223</ele>
        <time>2011-03-22T16:47:10Z</time>
      </trkpt>
      <trkpt lat="47.20966" lon="5.50629">
        <ele>222</ele>
        <time>2011-03-22T16:47:16Z</time>
      </trkpt>
      <trkpt lat="47.2096" lon="5.5059">
        <ele>221</ele>
        <time>2011-03-22T16:47:21Z</time>
      </trkpt>
      <trkpt lat="47.20942" lon="5.50485">
        <ele>219</ele>
        <time>2011-03-22T16:47:36Z</time>
      </trkpt>
      <trkpt lat="47.20917" lon="5.50425">
        <ele>217</ele>
        <time>2011-03-22T16:47:50Z</time>
      </trkpt>
      <trkpt lat="47.20874" lon="5.50342">
        <ele>216</ele>
        <time>2011-03-22T16:48:07Z</time>
      </trkpt>
      <trkpt lat="47.20866" lon="5.50327">
        <ele>216</ele>
        <time>2011-03-22T16:48:10Z</time>
      </trkpt>
      <trkpt lat="47.20827" lon="5.50259">
        <ele>217</ele>
        <time>2011-03-22T16:48:27Z</time>
      </trkpt>
      <trkpt lat="47.20762" lon="5.50155">
        <ele>220</ele>
        <time>2011-03-22T16:48:50Z</time>
      </trkpt>
      <trkpt lat="47.20736" lon="5.50121">
        <ele>219</ele>
        <time>2011-03-22T16:48:57Z</time>
      </trkpt>
      <trkpt lat="47.20717" lon="5.50107">
        <ele>219</ele>
        <time>2011-03-22T16:49:01Z</time>
      </trkpt>
      <trkpt lat="47.20686" lon="5.50094">
        <ele>220</ele>
        <time>2011-03-22T16:49:07Z</time>
      </trkpt>
      <trkpt lat="47.2067" lon="5.50091">
        <ele>220</ele>
        <time>2011-03-22T16:49:10Z</time>
      </trkpt>
      <trkpt lat="47.20627" lon="5.50097">
        <ele>224</ele>
        <time>2011-03-22T16:49:20Z</time>
      </trkpt>
      <trkpt lat="47.20582" lon="5.50085">
        <ele>227</ele>
        <time>2011-03-22T16:49:32Z</time>
      </trkpt>
      <trkpt lat="47.20575" lon="5.50081">
        <ele>228</ele>
        <time>2011-03-22T16:49:34Z</time>
      </trkpt>
      <trkpt lat="47.2055" lon="5.50062">
        <ele>231</ele>
        <time>2011-03-22T16:49:42Z</time>
      </trkpt>
      <trkpt lat="47.20513" lon="5.50041">
        <ele>234</ele>
        <time>2011-03-22T16:49:53Z</time>
      </trkpt>
      <trkpt lat="47.20509" lon="5.50039">
        <ele>235</ele>
        <time>2011-03-22T16:49:54Z</time>
      </trkpt>
      <trkpt lat="47.20492" lon="5.50024">
        <ele>236</ele>
        <time>2011-03-22T16:50:03Z</time>
      </trkpt>
      <trkpt lat="47.20486" lon="5.50033">
        <ele>237</ele>
        <time>2011-03-22T16:50:09Z</time>
      </trkpt>
      <trkpt lat="47.20489" lon="5.50036">
        <ele>236</ele>
        <time>2011-03-22T16:50:30Z</time>
      </trkpt>
      <trkpt lat="47.2049" lon="5.50037">
        <ele>236</ele>
        <time>2011-03-22T16:51:38Z</time>
      </trkpt>
      <trkpt lat="47.20496" lon="5.50033">
        <ele>236</ele>
        <time>2011-03-22T16:51:42Z</time>
      </trkpt>
      <trkpt lat="47.20489" lon="5.50029">
        <ele>236</ele>
        <time>2011-03-22T16:51:52Z</time>
      </trkpt>
      <trkpt lat="47.20487" lon="5.50033">
        <ele>236</ele>
        <time>2011-03-22T16:52:12Z</time>
      </trkpt>
      <trkpt lat="47.20486" lon="5.50034">
        <ele>236</ele>
        <time>2011-03-22T16:53:06Z</time>
      </trkpt>
      <trkpt lat="47.20485" lon="5.50034">
        <ele>237</ele>
        <time>2011-03-22T16:54:00Z</time>
      </trkpt>
      <trkpt lat="47.20483" lon="5.50036">
        <ele>237</ele>
        <time>2011-03-22T16:54:02Z</time>
      </trkpt>
      <trkpt lat="47.2047" lon="5.50083">
        <ele>236</ele>
        <time>2011-03-22T16:54:15Z</time>
      </trkpt>
      <trkpt lat="47.20463" lon="5.50107">
        <ele>236</ele>
        <time>2011-03-22T16:54:19Z</time>
      </trkpt>
      <trkpt lat="47.20454" lon="5.50147">
        <ele>236</ele>
        <time>2011-03-22T16:54:25Z</time>
      </trkpt>
      <trkpt lat="47.20448" lon="5.50166">
        <ele>236</ele>
        <time>2011-03-22T16:54:28Z</time>
      </trkpt>
      <trkpt lat="47.20416" lon="5.50222">
        <ele>236</ele>
        <time>2011-03-22T16:54:41Z</time>
      </trkpt>
      <trkpt lat="47.2041" lon="5.50231">
        <ele>236</ele>
        <time>2011-03-22T16:54:43Z</time>
      </trkpt>
      <trkpt lat="47.20383" lon="5.50318">
        <ele>239</ele>
        <time>2011-03-22T16:55:00Z</time>
      </trkpt>
      <trkpt lat="47.20374" lon="5.50333">
        <ele>240</ele>
        <time>2011-03-22T16:55:04Z</time>
      </trkpt>
      <trkpt lat="47.20308" lon="5.50395">
        <ele>238</ele>
        <time>2011-03-22T16:55:23Z</time>
      </trkpt>
      <trkpt lat="47.20299" lon="5.504">
        <ele>238</ele>
        <time>2011-03-22T16:55:25Z</time>
      </trkpt>
      <trkpt lat="47.20235" lon="5.50408">
        <ele>236</ele>
        <time>2011-03-22T16:55:37Z</time>
      </trkpt>
      <trkpt lat="47.20194" lon="5.5042">
        <ele>235</ele>
        <time>2011-03-22T16:55:45Z</time>
      </trkpt>
      <trkpt lat="47.20169" lon="5.50434">
        <ele>235</ele>
        <time>2011-03-22T16:55:50Z</time>
      </trkpt>
      <trkpt lat="47.20145" lon="5.50457">
        <ele>234</ele>
        <time>2011-03-22T16:55:55Z</time>
      </trkpt>
      <trkpt lat="47.20078" lon="5.5055">
        <ele>231</ele>
        <time>2011-03-22T16:56:08Z</time>
      </trkpt>
      <trkpt lat="47.20066" lon="5.50558">
        <ele>230</ele>
        <time>2011-03-22T16:56:10Z</time>
      </trkpt>
      <trkpt lat="47.2006" lon="5.50561">
        <ele>229</ele>
        <time>2011-03-22T16:56:11Z</time>
      </trkpt>
      <trkpt lat="47.19994" lon="5.50575">
        <ele>227</ele>
        <time>2011-03-22T16:56:20Z</time>
      </trkpt>
      <trkpt lat="47.19955" lon="5.50554">
        <ele>224</ele>
        <time>2011-03-22T16:56:25Z</time>
      </trkpt>
      <trkpt lat="47.1994" lon="5.50539">
        <ele>223</ele>
        <time>2011-03-22T16:56:27Z</time>
      </trkpt>
      <trkpt lat="47.19915" lon="5.50533">
        <ele>221</ele>
        <time>2011-03-22T16:56:30Z</time>
      </trkpt>
      <trkpt lat="47.19886" lon="5.50578">
        <ele>220</ele>
        <time>2011-03-22T16:56:35Z</time>
      </trkpt>
      <trkpt lat="47.19885" lon="5.5059">
        <ele>219</ele>
        <time>2011-03-22T16:56:36Z</time>
      </trkpt>
      <trkpt lat="47.19881" lon="5.50636">
        <ele>217</ele>
        <time>2011-03-22T16:56:40Z</time>
      </trkpt>
      <trkpt lat="47.19876" lon="5.50662">
        <ele>215</ele>
        <time>2011-03-22T16:56:43Z</time>
      </trkpt>
      <trkpt lat="47.19865" lon="5.50683">
        <ele>214</ele>
        <time>2011-03-22T16:56:48Z</time>
      </trkpt>
      <trkpt lat="47.19859" lon="5.50702">
        <ele>214</ele>
        <time>2011-03-22T16:56:53Z</time>
      </trkpt>
      <trkpt lat="47.19858" lon="5.50712">
        <ele>214</ele>
        <time>2011-03-22T16:56:55Z</time>
      </trkpt>
      <trkpt lat="47.19844" lon="5.50846">
        <ele>215</ele>
        <time>2011-03-22T16:57:13Z</time>
      </trkpt>
      <trkpt lat="47.19833" lon="5.50951">
        <ele>217</ele>
        <time>2011-03-22T16:57:33Z</time>
      </trkpt>
      <trkpt lat="47.19827" lon="5.51022">
        <ele>221</ele>
        <time>2011-03-22T16:57:51Z</time>
      </trkpt>
      <trkpt lat="47.19822" lon="5.51101">
        <ele>225</ele>
        <time>2011-03-22T16:58:04Z</time>
      </trkpt>
      <trkpt lat="47.19822" lon="5.51109">
        <ele>225</ele>
        <time>2011-03-22T16:58:05Z</time>
      </trkpt>
      <trkpt lat="47.19822" lon="5.51146">
        <ele>226</ele>
        <time>2011-03-22T16:58:10Z</time>
      </trkpt>
      <trkpt lat="47.19824" lon="5.51256">
        <ele>229</ele>
        <time>2011-03-22T16:58:27Z</time>
      </trkpt>
      <trkpt lat="47.19827" lon="5.51369">
        <ele>230</ele>
        <time>2011-03-22T16:58:45Z</time>
      </trkpt>
      <trkpt lat="47.19824" lon="5.51408">
        <ele>229</ele>
        <time>2011-03-22T16:58:51Z</time>
      </trkpt>
      <trkpt lat="47.1978" lon="5.51514">
        <ele>227</ele>
        <time>2011-03-22T16:59:09Z</time>
      </trkpt>
      <trkpt lat="47.19723" lon="5.51637">
        <ele>225</ele>
        <time>2011-03-22T16:59:28Z</time>
      </trkpt>
      <trkpt lat="47.19676" lon="5.5182">
        <ele>223</ele>
        <time>2011-03-22T16:59:52Z</time>
      </trkpt>
      <trkpt lat="47.19629" lon="5.52011">
        <ele>224</ele>
        <time>2011-03-22T17:00:18Z</time>
      </trkpt>
      <trkpt lat="47.19618" lon="5.52052">
        <ele>224</ele>
        <time>2011-03-22T17:00:29Z</time>
      </trkpt>
      <trkpt lat="47.196" lon="5.52127">
        <ele>226</ele>
        <time>2011-03-22T17:00:46Z</time>
      </trkpt>
      <trkpt lat="47.1958" lon="5.52211">
        <ele>228</ele>
        <time>2011-03-22T17:01:03Z</time>
      </trkpt>
      <trkpt lat="47.19563" lon="5.52265">
        <ele>229</ele>
        <time>2011-03-22T17:01:18Z</time>
      </trkpt>
      <trkpt lat="47.19561" lon="5.52267">
        <ele>230</ele>
        <time>2011-03-22T17:01:20Z</time>
      </trkpt>
      <trkpt lat="47.19561" lon="5.52281">
        <ele>229</ele>
        <time>2011-03-22T17:01:25Z</time>
      </trkpt>
      <trkpt lat="47.19591" lon="5.52343">
        <ele>230</ele>
        <time>2011-03-22T17:01:41Z</time>
      </trkpt>
      <trkpt lat="47.19611" lon="5.52394">
        <ele>231</ele>
        <time>2011-03-22T17:01:54Z</time>
      </trkpt>
      <trkpt lat="47.19614" lon="5.52405">
        <ele>231</ele>
        <time>2011-03-22T17:02:05Z</time>
      </trkpt>
      <trkpt lat="47.19613" lon="5.5241">
        <ele>231</ele>
        <time>2011-03-22T17:02:28Z</time>
      </trkpt>
      <trkpt lat="47.19614" lon="5.52412">
        <ele>231</ele>
        <time>2011-03-22T17:02:55Z</time>
      </trkpt>
      <trkpt lat="47.19613" lon="5.52415">
        <ele>231</ele>
        <time>2011-03-22T17:02:57Z</time>
      </trkpt>
      <trkpt lat="47.1962" lon="5.52445">
        <ele>233</ele>
        <time>2011-03-22T17:03:11Z</time>
      </trkpt>
      <trkpt lat="47.19625" lon="5.52482">
        <ele>236</ele>
        <time>2011-03-22T17:03:23Z</time>
      </trkpt>
      <trkpt lat="47.19629" lon="5.52491">
        <ele>237</ele>
        <time>2011-03-22T17:03:27Z</time>
      </trkpt>
      <trkpt lat="47.1963" lon="5.52493">
        <ele>237</ele>
        <time>2011-03-22T17:03:28Z</time>
      </trkpt>
      <trkpt lat="47.19646" lon="5.52505">
        <ele>239</ele>
        <time>2011-03-22T17:03:38Z</time>
      </trkpt>
      <trkpt lat="47.19657" lon="5.52493">
        <ele>241</ele>
        <time>2011-03-22T17:03:44Z</time>
      </trkpt>
      <trkpt lat="47.19663" lon="5.52472">
        <ele>242</ele>
        <time>2011-03-22T17:03:49Z</time>
      </trkpt>
      <trkpt lat="47.19669" lon="5.52451">
        <ele>243</ele>
        <time>2011-03-22T17:03:54Z</time>
      </trkpt>
      <trkpt lat="47.19679" lon="5.52447">
        <ele>244</ele>
        <time>2011-03-22T17:03:59Z</time>
      </trkpt>
      <trkpt lat="47.19684" lon="5.52448">
        <ele>245</ele>
        <time>2011-03-22T17:04:01Z</time>
      </trkpt>
      <trkpt lat="47.19725" lon="5.52484">
        <ele>247</ele>
        <time>2011-03-22T17:04:18Z</time>
      </trkpt>
      <trkpt lat="47.19752" lon="5.52506">
        <ele>249</ele>
        <time>2011-03-22T17:04:29Z</time>
      </trkpt>
      <trkpt lat="47.19776" lon="5.52526">
        <ele>250</ele>
        <time>2011-03-22T17:04:41Z</time>
      </trkpt>
      <trkpt lat="47.19777" lon="5.52532">
        <ele>251</ele>
        <time>2011-03-22T17:04:43Z</time>
      </trkpt>
      <trkpt lat="47.19779" lon="5.52536">
        <ele>250</ele>
        <time>2011-03-22T17:04:55Z</time>
      </trkpt>
      <trkpt lat="47.19766" lon="5.52573">
        <ele>251</ele>
        <time>2011-03-22T17:05:10Z</time>
      </trkpt>
      <trkpt lat="47.19742" lon="5.5265">
        <ele>252</ele>
        <time>2011-03-22T17:05:30Z</time>
      </trkpt>
      <trkpt lat="47.1972" lon="5.52715">
        <ele>255</ele>
        <time>2011-03-22T17:05:48Z</time>
      </trkpt>
      <trkpt lat="47.19719" lon="5.52758">
        <ele>258</ele>
        <time>2011-03-22T17:06:02Z</time>
      </trkpt>
      <trkpt lat="47.19724" lon="5.52787">
        <ele>258</ele>
        <time>2011-03-22T17:06:14Z</time>
      </trkpt>
      <trkpt lat="47.19735" lon="5.52826">
        <ele>259</ele>
        <time>2011-03-22T17:06:27Z</time>
      </trkpt>
      <trkpt lat="47.19751" lon="5.52862">
        <ele>259</ele>
        <time>2011-03-22T17:06:40Z</time>
      </trkpt>
      <trkpt lat="47.19763" lon="5.52911">
        <ele>260</ele>
        <time>2011-03-22T17:06:55Z</time>
      </trkpt>
      <trkpt lat="47.19765" lon="5.52918">
        <ele>260</ele>
        <time>2011-03-22T17:06:57Z</time>
      </trkpt>
      <trkpt lat="47.19773" lon="5.52981">
        <ele>260</ele>
        <time>2011-03-22T17:07:12Z</time>
      </trkpt>
      <trkpt lat="47.19767" lon="5.5305">
        <ele>261</ele>
        <time>2011-03-22T17:07:28Z</time>
      </trkpt>
      <trkpt lat="47.19755" lon="5.53116">
        <ele>264</ele>
        <time>2011-03-22T17:07:44Z</time>
      </trkpt>
      <trkpt lat="47.19756" lon="5.53183">
        <ele>268</ele>
        <time>2011-03-22T17:08:02Z</time>
      </trkpt>
      <trkpt lat="47.19758" lon="5.53225">
        <ele>271</ele>
        <time>2011-03-22T17:08:15Z</time>
      </trkpt>
      <trkpt lat="47.19756" lon="5.53241">
        <ele>273</ele>
        <time>2011-03-22T17:08:20Z</time>
      </trkpt>
      <trkpt lat="47.19749" lon="5.53287">
        <ele>276</ele>
        <time>2011-03-22T17:08:34Z</time>
      </trkpt>
      <trkpt lat="47.19735" lon="5.53344">
        <ele>279</ele>
        <time>2011-03-22T17:08:51Z</time>
      </trkpt>
      <trkpt lat="47.19716" lon="5.53384">
        <ele>282</ele>
        <time>2011-03-22T17:09:05Z</time>
      </trkpt>
      <trkpt lat="47.19674" lon="5.53432">
        <ele>285</ele>
        <time>2011-03-22T17:09:26Z</time>
      </trkpt>
      <trkpt lat="47.19639" lon="5.53462">
        <ele>288</ele>
        <time>2011-03-22T17:09:41Z</time>
      </trkpt>
      <trkpt lat="47.19606" lon="5.53468">
        <ele>291</ele>
        <time>2011-03-22T17:09:53Z</time>
      </trkpt>
      <trkpt lat="47.1956" lon="5.53462">
        <ele>294</ele>
        <time>2011-03-22T17:10:10Z</time>
      </trkpt>
      <trkpt lat="47.19517" lon="5.53452">
        <ele>296</ele>
        <time>2011-03-22T17:10:30Z</time>
      </trkpt>
      <trkpt lat="47.19479" lon="5.53438">
        <ele>298</ele>
        <time>2011-03-22T17:10:47Z</time>
      </trkpt>
      <trkpt lat="47.19437" lon="5.53419">
        <ele>300</ele>
        <time>2011-03-22T17:11:04Z</time>
      </trkpt>
      <trkpt lat="47.19372" lon="5.53393">
        <ele>302</ele>
        <time>2011-03-22T17:11:26Z</time>
      </trkpt>
      <trkpt lat="47.1932" lon="5.53376">
        <ele>303</ele>
        <time>2011-03-22T17:11:44Z</time>
      </trkpt>
      <trkpt lat="47.1926" lon="5.5335">
        <ele>306</ele>
        <time>2011-03-22T17:12:01Z</time>
      </trkpt>
      <trkpt lat="47.19211" lon="5.53337">
        <ele>308</ele>
        <time>2011-03-22T17:12:15Z</time>
      </trkpt>
      <trkpt lat="47.19172" lon="5.53368">
        <ele>311</ele>
        <time>2011-03-22T17:12:28Z</time>
      </trkpt>
      <trkpt lat="47.19167" lon="5.53437">
        <ele>314</ele>
        <time>2011-03-22T17:12:42Z</time>
      </trkpt>
      <trkpt lat="47.19167" lon="5.53523">
        <ele>316</ele>
        <time>2011-03-22T17:13:00Z</time>
      </trkpt>
      <trkpt lat="47.1917" lon="5.53584">
        <ele>319</ele>
        <time>2011-03-22T17:13:13Z</time>
      </trkpt>
      <trkpt lat="47.19187" lon="5.53656">
        <ele>323</ele>
        <time>2011-03-22T17:13:28Z</time>
      </trkpt>
      <trkpt lat="47.19199" lon="5.53714">
        <ele>324</ele>
        <time>2011-03-22T17:13:42Z</time>
      </trkpt>
      <trkpt lat="47.19198" lon="5.53775">
        <ele>326</ele>
        <time>2011-03-22T17:13:55Z</time>
      </trkpt>
      <trkpt lat="47.1917" lon="5.53836">
        <ele>329</ele>
        <time>2011-03-22T17:14:11Z</time>
      </trkpt>
      <trkpt lat="47.19117" lon="5.53851">
        <ele>331</ele>
        <time>2011-03-22T17:14:26Z</time>
      </trkpt>
      <trkpt lat="47.19062" lon="5.53826">
        <ele>334</ele>
        <time>2011-03-22T17:14:43Z</time>
      </trkpt>
      <trkpt lat="47.1901" lon="5.53796">
        <ele>337</ele>
        <time>2011-03-22T17:15:01Z</time>
      </trkpt>
      <trkpt lat="47.18962" lon="5.53776">
        <ele>338</ele>
        <time>2011-03-22T17:15:17Z</time>
      </trkpt>
      <trkpt lat="47.18921" lon="5.53776">
        <ele>339</ele>
        <time>2011-03-22T17:15:32Z</time>
      </trkpt>
      <trkpt lat="47.18878" lon="5.53781">
        <ele>340</ele>
        <time>2011-03-22T17:15:50Z</time>
      </trkpt>
      <trkpt lat="47.1888" lon="5.53785">
        <ele>340</ele>
        <time>2011-03-22T17:15:54Z</time>
      </trkpt>
      <trkpt lat="47.18933" lon="5.5377">
        <ele>339</ele>
        <time>2011-03-22T17:16:09Z</time>
      </trkpt>
      <trkpt lat="47.18938" lon="5.5377">
        <ele>339</ele>
        <time>2011-03-22T17:16:10Z</time>
      </trkpt>
      <trkpt lat="47.19015" lon="5.53797">
        <ele>336</ele>
        <time>2011-03-22T17:16:25Z</time>
      </trkpt>
      <trkpt lat="47.19026" lon="5.53802">
        <ele>336</ele>
        <time>2011-03-22T17:16:27Z</time>
      </trkpt>
      <trkpt lat="47.19043" lon="5.53808">
        <ele>335</ele>
        <time>2011-03-22T17:16:30Z</time>
      </trkpt>
      <trkpt lat="47.19117" lon="5.53845">
        <ele>332</ele>
        <time>2011-03-22T17:16:44Z</time>
      </trkpt>
      <trkpt lat="47.19134" lon="5.53846">
        <ele>331</ele>
        <time>2011-03-22T17:16:48Z</time>
      </trkpt>
      <trkpt lat="47.19181" lon="5.53819">
        <ele>328</ele>
        <time>2011-03-22T17:17:03Z</time>
      </trkpt>
      <trkpt lat="47.19197" lon="5.5378">
        <ele>327</ele>
        <time>2011-03-22T17:17:20Z</time>
      </trkpt>
      <trkpt lat="47.19199" lon="5.53722">
        <ele>326</ele>
        <time>2011-03-22T17:17:38Z</time>
      </trkpt>
      <trkpt lat="47.19188" lon="5.53653">
        <ele>322</ele>
        <time>2011-03-22T17:17:54Z</time>
      </trkpt>
      <trkpt lat="47.19171" lon="5.53583">
        <ele>319</ele>
        <time>2011-03-22T17:18:11Z</time>
      </trkpt>
      <trkpt lat="47.19166" lon="5.53512">
        <ele>316</ele>
        <time>2011-03-22T17:18:32Z</time>
      </trkpt>
      <trkpt lat="47.19164" lon="5.53515">
        <ele>316</ele>
        <time>2011-03-22T17:18:37Z</time>
      </trkpt>
      <trkpt lat="47.1917" lon="5.53592">
        <ele>320</ele>
        <time>2011-03-22T17:18:56Z</time>
      </trkpt>
      <trkpt lat="47.19188" lon="5.53667">
        <ele>323</ele>
        <time>2011-03-22T17:19:13Z</time>
      </trkpt>
      <trkpt lat="47.19197" lon="5.53747">
        <ele>326</ele>
        <time>2011-03-22T17:19:29Z</time>
      </trkpt>
      <trkpt lat="47.19197" lon="5.53753">
        <ele>326</ele>
        <time>2011-03-22T17:19:30Z</time>
      </trkpt>
      <trkpt lat="47.19173" lon="5.53831">
        <ele>329</ele>
        <time>2011-03-22T17:19:47Z</time>
      </trkpt>
      <trkpt lat="47.19117" lon="5.5385">
        <ele>332</ele>
        <time>2011-03-22T17:20:03Z</time>
      </trkpt>
      <trkpt lat="47.19058" lon="5.53822">
        <ele>335</ele>
        <time>2011-03-22T17:20:19Z</time>
      </trkpt>
      <trkpt lat="47.1898" lon="5.53779">
        <ele>338</ele>
        <time>2011-03-22T17:20:39Z</time>
      </trkpt>
      <trkpt lat="47.18918" lon="5.53775">
        <ele>340</ele>
        <time>2011-03-22T17:20:54Z</time>
      </trkpt>
      <trkpt lat="47.18853" lon="5.53789">
        <ele>342</ele>
        <time>2011-03-22T17:21:09Z</time>
      </trkpt>
      <trkpt lat="47.1878" lon="5.53805">
        <ele>343</ele>
        <time>2011-03-22T17:21:25Z</time>
      </trkpt>
      <trkpt lat="47.18745" lon="5.53807">
        <ele>344</ele>
        <time>2011-03-22T17:21:32Z</time>
      </trkpt>
      <trkpt lat="47.1865" lon="5.53824">
        <ele>343</ele>
        <time>2011-03-22T17:21:45Z</time>
      </trkpt>
      <trkpt lat="47.18556" lon="5.53837">
        <ele>343</ele>
        <time>2011-03-22T17:21:58Z</time>
      </trkpt>
      <trkpt lat="47.18453" lon="5.53855">
        <ele>345</ele>
        <time>2011-03-22T17:22:14Z</time>
      </trkpt>
      <trkpt lat="47.18383" lon="5.53867">
        <ele>347</ele>
        <time>2011-03-22T17:22:26Z</time>
      </trkpt>
      <trkpt lat="47.18308" lon="5.5388">
        <ele>351</ele>
        <time>2011-03-22T17:22:39Z</time>
      </trkpt>
      <trkpt lat="47.18234" lon="5.53893">
        <ele>353</ele>
        <time>2011-03-22T17:22:54Z</time>
      </trkpt>
      <trkpt lat="47.18181" lon="5.53902">
        <ele>355</ele>
        <time>2011-03-22T17:23:06Z</time>
      </trkpt>
      <trkpt lat="47.18165" lon="5.53905">
        <ele>355</ele>
        <time>2011-03-22T17:23:09Z</time>
      </trkpt>
      <trkpt lat="47.18124" lon="5.53923">
        <ele>356</ele>
        <time>2011-03-22T17:23:18Z</time>
      </trkpt>
      <trkpt lat="47.18058" lon="5.53975">
        <ele>357</ele>
        <time>2011-03-22T17:23:36Z</time>
      </trkpt>
      <trkpt lat="47.18037" lon="5.5398">
        <ele>356</ele>
        <time>2011-03-22T17:23:46Z</time>
      </trkpt>
      <trkpt lat="47.18016" lon="5.53973">
        <ele>355</ele>
        <time>2011-03-22T17:24:11Z</time>
      </trkpt>
      <trkpt lat="47.17956" lon="5.53915">
        <ele>353</ele>
        <time>2011-03-22T17:24:21Z</time>
      </trkpt>
      <trkpt lat="47.17924" lon="5.53882">
        <ele>351</ele>
        <time>2011-03-22T17:24:25Z</time>
      </trkpt>
      <trkpt lat="47.17908" lon="5.53866">
        <ele>350</ele>
        <time>2011-03-22T17:24:27Z</time>
      </trkpt>
      <trkpt lat="47.17871" lon="5.53847">
        <ele>349</ele>
        <time>2011-03-22T17:24:31Z</time>
      </trkpt>
      <trkpt lat="47.17838" lon="5.53892">
        <ele>346</ele>
        <time>2011-03-22T17:24:36Z</time>
      </trkpt>
      <trkpt lat="47.17836" lon="5.53906">
        <ele>345</ele>
        <time>2011-03-22T17:24:37Z</time>
      </trkpt>
      <trkpt lat="47.1783" lon="5.54">
        <ele>343</ele>
        <time>2011-03-22T17:24:43Z</time>
      </trkpt>
      <trkpt lat="47.17827" lon="5.54032">
        <ele>341</ele>
        <time>2011-03-22T17:24:45Z</time>
      </trkpt>
      <trkpt lat="47.17815" lon="5.54113">
        <ele>339</ele>
        <time>2011-03-22T17:24:50Z</time>
      </trkpt>
      <trkpt lat="47.17786" lon="5.5419">
        <ele>336</ele>
        <time>2011-03-22T17:24:55Z</time>
      </trkpt>
      <trkpt lat="47.17781" lon="5.54205">
        <ele>336</ele>
        <time>2011-03-22T17:24:56Z</time>
      </trkpt>
      <trkpt lat="47.17734" lon="5.54323">
        <ele>332</ele>
        <time>2011-03-22T17:25:04Z</time>
      </trkpt>
      <trkpt lat="47.17728" lon="5.54338">
        <ele>332</ele>
        <time>2011-03-22T17:25:05Z</time>
      </trkpt>
      <trkpt lat="47.17682" lon="5.54451">
        <ele>328</ele>
        <time>2011-03-22T17:25:13Z</time>
      </trkpt>
      <trkpt lat="47.17631" lon="5.54575">
        <ele>324</ele>
        <time>2011-03-22T17:25:22Z</time>
      </trkpt>
      <trkpt lat="47.17605" lon="5.54642">
        <ele>321</ele>
        <time>2011-03-22T17:25:27Z</time>
      </trkpt>
      <trkpt lat="47.17585" lon="5.54717">
        <ele>319</ele>
        <time>2011-03-22T17:25:32Z</time>
      </trkpt>
      <trkpt lat="47.17578" lon="5.54748">
        <ele>318</ele>
        <time>2011-03-22T17:25:34Z</time>
      </trkpt>
      <trkpt lat="47.17565" lon="5.54811">
        <ele>316</ele>
        <time>2011-03-22T17:25:38Z</time>
      </trkpt>
      <trkpt lat="47.17555" lon="5.54858">
        <ele>314</ele>
        <time>2011-03-22T17:25:41Z</time>
      </trkpt>
      <trkpt lat="47.17551" lon="5.5489">
        <ele>313</ele>
        <time>2011-03-22T17:25:43Z</time>
      </trkpt>
      <trkpt lat="47.17558" lon="5.54973">
        <ele>311</ele>
        <time>2011-03-22T17:25:48Z</time>
      </trkpt>
      <trkpt lat="47.17568" lon="5.55023">
        <ele>308</ele>
        <time>2011-03-22T17:25:51Z</time>
      </trkpt>
      <trkpt lat="47.17586" lon="5.55109">
        <ele>306</ele>
        <time>2011-03-22T17:25:56Z</time>
      </trkpt>
      <trkpt lat="47.17596" lon="5.55178">
        <ele>303</ele>
        <time>2011-03-22T17:26:00Z</time>
      </trkpt>
      <trkpt lat="47.17601" lon="5.55229">
        <ele>302</ele>
        <time>2011-03-22T17:26:03Z</time>
      </trkpt>
      <trkpt lat="47.17605" lon="5.55278">
        <ele>299</ele>
        <time>2011-03-22T17:26:06Z</time>
      </trkpt>
      <trkpt lat="47.17604" lon="5.5531">
        <ele>298</ele>
        <time>2011-03-22T17:26:08Z</time>
      </trkpt>
      <trkpt lat="47.17601" lon="5.55424">
        <ele>294</ele>
        <time>2011-03-22T17:26:15Z</time>
      </trkpt>
      <trkpt lat="47.17596" lon="5.55504">
        <ele>291</ele>
        <time>2011-03-22T17:26:20Z</time>
      </trkpt>
      <trkpt lat="47.17595" lon="5.55518">
        <ele>290</ele>
        <time>2011-03-22T17:26:21Z</time>
      </trkpt>
      <trkpt lat="47.17582" lon="5.55554">
        <ele>288</ele>
        <time>2011-03-22T17:26:24Z</time>
      </trkpt>
      <trkpt lat="47.17544" lon="5.55553">
        <ele>287</ele>
        <time>2011-03-22T17:26:28Z</time>
      </trkpt>
      <trkpt lat="47.17524" lon="5.55541">
        <ele>285</ele>
        <time>2011-03-22T17:26:30Z</time>
      </trkpt>
      <trkpt lat="47.17467" lon="5.55538">
        <ele>282</ele>
        <time>2011-03-22T17:26:35Z</time>
      </trkpt>
      <trkpt lat="47.17392" lon="5.55557">
        <ele>278</ele>
        <time>2011-03-22T17:26:42Z</time>
      </trkpt>
      <trkpt lat="47.17336" lon="5.55573">
        <ele>275</ele>
        <time>2011-03-22T17:26:47Z</time>
      </trkpt>
      <trkpt lat="47.17325" lon="5.55576">
        <ele>275</ele>
        <time>2011-03-22T17:26:48Z</time>
      </trkpt>
      <trkpt lat="47.17283" lon="5.556">
        <ele>272</ele>
        <time>2011-03-22T17:26:52Z</time>
      </trkpt>
      <trkpt lat="47.17274" lon="5.55608">
        <ele>270</ele>
        <time>2011-03-22T17:26:53Z</time>
      </trkpt>
      <trkpt lat="47.17244" lon="5.5564">
        <ele>269</ele>
        <time>2011-03-22T17:26:56Z</time>
      </trkpt>
      <trkpt lat="47.17232" lon="5.5567">
        <ele>267</ele>
        <time>2011-03-22T17:26:58Z</time>
      </trkpt>
      <trkpt lat="47.17223" lon="5.55702">
        <ele>266</ele>
        <time>2011-03-22T17:27:00Z</time>
      </trkpt>
      <trkpt lat="47.17208" lon="5.55762">
        <ele>264</ele>
        <time>2011-03-22T17:27:04Z</time>
      </trkpt>
      <trkpt lat="47.17203" lon="5.55812">
        <ele>261</ele>
        <time>2011-03-22T17:27:08Z</time>
      </trkpt>
      <trkpt lat="47.17203" lon="5.55824">
        <ele>261</ele>
        <time>2011-03-22T17:27:09Z</time>
      </trkpt>
      <trkpt lat="47.17243" lon="5.5593">
        <ele>258</ele>
        <time>2011-03-22T17:27:19Z</time>
      </trkpt>
      <trkpt lat="47.17275" lon="5.55997">
        <ele>255</ele>
        <time>2011-03-22T17:27:25Z</time>
      </trkpt>
      <trkpt lat="47.17284" lon="5.56022">
        <ele>253</ele>
        <time>2011-03-22T17:27:27Z</time>
      </trkpt>
      <trkpt lat="47.17286" lon="5.56089">
        <ele>251</ele>
        <time>2011-03-22T17:27:32Z</time>
      </trkpt>
      <trkpt lat="47.17256" lon="5.56113">
        <ele>248</ele>
        <time>2011-03-22T17:27:36Z</time>
      </trkpt>
      <trkpt lat="47.17239" lon="5.56098">
        <ele>247</ele>
        <time>2011-03-22T17:27:38Z</time>
      </trkpt>
      <trkpt lat="47.17189" lon="5.56021">
        <ele>244</ele>
        <time>2011-03-22T17:27:45Z</time>
      </trkpt>
      <trkpt lat="47.17151" lon="5.55997">
        <ele>242</ele>
        <time>2011-03-22T17:27:49Z</time>
      </trkpt>
      <trkpt lat="47.17108" lon="5.56032">
        <ele>239</ele>
        <time>2011-03-22T17:27:54Z</time>
      </trkpt>
      <trkpt lat="47.17083" lon="5.5608">
        <ele>237</ele>
        <time>2011-03-22T17:27:58Z</time>
      </trkpt>
      <trkpt lat="47.1707" lon="5.56102">
        <ele>236</ele>
        <time>2011-03-22T17:28:00Z</time>
      </trkpt>
      <trkpt lat="47.16979" lon="5.56181">
        <ele>235</ele>
        <time>2011-03-22T17:28:11Z</time>
      </trkpt>
      <trkpt lat="47.16936" lon="5.56215">
        <ele>232</ele>
        <time>2011-03-22T17:28:16Z</time>
      </trkpt>
      <trkpt lat="47.16836" lon="5.56257">
        <ele>229</ele>
        <time>2011-03-22T17:28:27Z</time>
      </trkpt>
      <trkpt lat="47.16755" lon="5.56307">
        <ele>226</ele>
        <time>2011-03-22T17:28:37Z</time>
      </trkpt>
      <trkpt lat="47.16739" lon="5.56322">
        <ele>225</ele>
        <time>2011-03-22T17:28:39Z</time>
      </trkpt>
      <trkpt lat="47.16694" lon="5.56401">
        <ele>224</ele>
        <time>2011-03-22T17:28:47Z</time>
      </trkpt>
      <trkpt lat="47.16655" lon="5.56491">
        <ele>225</ele>
        <time>2011-03-22T17:28:59Z</time>
      </trkpt>
      <trkpt lat="47.16629" lon="5.56518">
        <ele>224</ele>
        <time>2011-03-22T17:29:09Z</time>
      </trkpt>
      <trkpt lat="47.16599" lon="5.56525">
        <ele>223</ele>
        <time>2011-03-22T17:29:16Z</time>
      </trkpt>
      <trkpt lat="47.16579" lon="5.56522">
        <ele>223</ele>
        <time>2011-03-22T17:29:20Z</time>
      </trkpt>
      <trkpt lat="47.16507" lon="5.56485">
        <ele>221</ele>
        <time>2011-03-22T17:29:33Z</time>
      </trkpt>
      <trkpt lat="47.16482" lon="5.56478">
        <ele>220</ele>
        <time>2011-03-22T17:29:37Z</time>
      </trkpt>
      <trkpt lat="47.1646" lon="5.56478">
        <ele>219</ele>
        <time>2011-03-22T17:29:41Z</time>
      </trkpt>
      <trkpt lat="47.16427" lon="5.56487">
        <ele>219</ele>
        <time>2011-03-22T17:29:50Z</time>
      </trkpt>
      <trkpt lat="47.16387" lon="5.56473">
        <ele>216</ele>
        <time>2011-03-22T17:29:58Z</time>
      </trkpt>
      <trkpt lat="47.16362" lon="5.56461">
        <ele>215</ele>
        <time>2011-03-22T17:30:03Z</time>
      </trkpt>
      <trkpt lat="47.16342" lon="5.56457">
        <ele>215</ele>
        <time>2011-03-22T17:30:07Z</time>
      </trkpt>
      <trkpt lat="47.16332" lon="5.56457">
        <ele>215</ele>
        <time>2011-03-22T17:30:09Z</time>
      </trkpt>
      <trkpt lat="47.16306" lon="5.56458">
        <ele>214</ele>
        <time>2011-03-22T17:30:15Z</time>
      </trkpt>
      <trkpt lat="47.16256" lon="5.56463">
        <ele>215</ele>
        <time>2011-03-22T17:30:31Z</time>
      </trkpt>
      <trkpt lat="47.16215" lon="5.56474">
        <ele>216</ele>
        <time>2011-03-22T17:30:43Z</time>
      </trkpt>
      <trkpt lat="47.16131" lon="5.56515">
        <ele>219</ele>
        <time>2011-03-22T17:31:04Z</time>
      </trkpt>
      <trkpt lat="47.16106" lon="5.56534">
        <ele>221</ele>
        <time>2011-03-22T17:31:11Z</time>
      </trkpt>
      <trkpt lat="47.16066" lon="5.56595">
        <ele>224</ele>
        <time>2011-03-22T17:31:24Z</time>
      </trkpt>
      <trkpt lat="47.15989" lon="5.56658">
        <ele>225</ele>
        <time>2011-03-22T17:31:41Z</time>
      </trkpt>
      <trkpt lat="47.15926" lon="5.56668">
        <ele>225</ele>
        <time>2011-03-22T17:31:57Z</time>
      </trkpt>
      <trkpt lat="47.15835" lon="5.56653">
        <ele>224</ele>
        <time>2011-03-22T17:32:19Z</time>
      </trkpt>
      <trkpt lat="47.15717" lon="5.56633">
        <ele>221</ele>
        <time>2011-03-22T17:32:38Z</time>
      </trkpt>
      <trkpt lat="47.15604" lon="5.56646">
        <ele>219</ele>
        <time>2011-03-22T17:32:54Z</time>
      </trkpt>
      <trkpt lat="47.1548" lon="5.56641">
        <ele>219</ele>
        <time>2011-03-22T17:33:13Z</time>
      </trkpt>
      <trkpt lat="47.15331" lon="5.56621">
        <ele>220</ele>
        <time>2011-03-22T17:33:35Z</time>
      </trkpt>
      <trkpt lat="47.15163" lon="5.5659">
        <ele>222</ele>
        <time>2011-03-22T17:34:01Z</time>
      </trkpt>
      <trkpt lat="47.15008" lon="5.56565">
        <ele>223</ele>
        <time>2011-03-22T17:34:26Z</time>
      </trkpt>
      <trkpt lat="47.14882" lon="5.56565">
        <ele>221</ele>
        <time>2011-03-22T17:34:45Z</time>
      </trkpt>
      <trkpt lat="47.14749" lon="5.56522">
        <ele>220</ele>
        <time>2011-03-22T17:35:02Z</time>
      </trkpt>
      <trkpt lat="47.14627" lon="5.56501">
        <ele>222</ele>
        <time>2011-03-22T17:35:20Z</time>
      </trkpt>
      <trkpt lat="47.14495" lon="5.56499">
        <ele>223</ele>
        <time>2011-03-22T17:35:44Z</time>
      </trkpt>
      <trkpt lat="47.14474" lon="5.56493">
        <ele>223</ele>
        <time>2011-03-22T17:35:54Z</time>
      </trkpt>
      <trkpt lat="47.14474" lon="5.56493">
        <ele>223</ele>
        <time>2011-03-22T17:37:35Z</time>
      </trkpt>
      <trkpt lat="47.14474" lon="5.56493">
        <ele>222</ele>
        <time>2011-03-22T17:38:04Z</time>
      </trkpt>
      <trkpt lat="47.14471" lon="5.56494">
        <ele>222</ele>
        <time>2011-03-22T17:38:07Z</time>
      </trkpt>
      <trkpt lat="47.14466" lon="5.56499">
        <ele>223</ele>
        <time>2011-03-22T17:38:10Z</time>
      </trkpt>
      <trkpt lat="47.14409" lon="5.56503">
        <ele>223</ele>
        <time>2011-03-22T17:38:22Z</time>
      </trkpt>
      <trkpt lat="47.14314" lon="5.56496">
        <ele>219</ele>
        <time>2011-03-22T17:38:36Z</time>
      </trkpt>
      <trkpt lat="47.14247" lon="5.56481">
        <ele>216</ele>
        <time>2011-03-22T17:38:44Z</time>
      </trkpt>
      <trkpt lat="47.14209" lon="5.56472">
        <ele>215</ele>
        <time>2011-03-22T17:38:48Z</time>
      </trkpt>
      <trkpt lat="47.14039" lon="5.56422">
        <ele>212</ele>
        <time>2011-03-22T17:39:07Z</time>
      </trkpt>
      <trkpt lat="47.13897" lon="5.5636">
        <ele>209</ele>
        <time>2011-03-22T17:39:24Z</time>
      </trkpt>
      <trkpt lat="47.13787" lon="5.56349">
        <ele>208</ele>
        <time>2011-03-22T17:39:37Z</time>
      </trkpt>
      <trkpt lat="47.1362" lon="5.56317">
        <ele>207</ele>
        <time>2011-03-22T17:39:57Z</time>
      </trkpt>
      <trkpt lat="47.13481" lon="5.56301">
        <ele>209</ele>
        <time>2011-03-22T17:40:17Z</time>
      </trkpt>
      <trkpt lat="47.13279" lon="5.56282">
        <ele>210</ele>
        <time>2011-03-22T17:40:46Z</time>
      </trkpt>
      <trkpt lat="47.13119" lon="5.56233">
        <ele>208</ele>
        <time>2011-03-22T17:41:10Z</time>
      </trkpt>
      <trkpt lat="47.12979" lon="5.56174">
        <ele>204</ele>
        <time>2011-03-22T17:41:29Z</time>
      </trkpt>
      <trkpt lat="47.12928" lon="5.56155">
        <ele>203</ele>
        <time>2011-03-22T17:41:36Z</time>
      </trkpt>
      <trkpt lat="47.12903" lon="5.56134">
        <ele>203</ele>
        <time>2011-03-22T17:41:40Z</time>
      </trkpt>
      <trkpt lat="47.12888" lon="5.56113">
        <ele>203</ele>
        <time>2011-03-22T17:41:43Z</time>
      </trkpt>
      <trkpt lat="47.12866" lon="5.56103">
        <ele>204</ele>
        <time>2011-03-22T17:41:47Z</time>
      </trkpt>
      <trkpt lat="47.1285" lon="5.56102">
        <ele>204</ele>
        <time>2011-03-22T17:41:57Z</time>
      </trkpt>
      <trkpt lat="47.12831" lon="5.56105">
        <ele>203</ele>
        <time>2011-03-22T17:42:03Z</time>
      </trkpt>
      <trkpt lat="47.12822" lon="5.56127">
        <ele>204</ele>
        <time>2011-03-22T17:42:07Z</time>
      </trkpt>
      <trkpt lat="47.12817" lon="5.56147">
        <ele>204</ele>
        <time>2011-03-22T17:42:10Z</time>
      </trkpt>
      <trkpt lat="47.12791" lon="5.56164">
        <ele>203</ele>
        <time>2011-03-22T17:42:15Z</time>
      </trkpt>
      <trkpt lat="47.12636" lon="5.56179">
        <ele>202</ele>
        <time>2011-03-22T17:42:37Z</time>
      </trkpt>
      <trkpt lat="47.12557" lon="5.56177">
        <ele>202</ele>
        <time>2011-03-22T17:42:49Z</time>
      </trkpt>
      <trkpt lat="47.12476" lon="5.56149">
        <ele>202</ele>
        <time>2011-03-22T17:43:03Z</time>
      </trkpt>
      <trkpt lat="47.12459" lon="5.56147">
        <ele>202</ele>
        <time>2011-03-22T17:43:07Z</time>
      </trkpt>
      <trkpt lat="47.12445" lon="5.56143">
        <ele>201</ele>
        <time>2011-03-22T17:43:10Z</time>
      </trkpt>
      <trkpt lat="47.12421" lon="5.56163">
        <ele>201</ele>
        <time>2011-03-22T17:43:16Z</time>
      </trkpt>
      <trkpt lat="47.12409" lon="5.56198">
        <ele>200</ele>
        <time>2011-03-22T17:43:21Z</time>
      </trkpt>
      <trkpt lat="47.12387" lon="5.56236">
        <ele>200</ele>
        <time>2011-03-22T17:43:28Z</time>
      </trkpt>
      <trkpt lat="47.12383" lon="5.56256">
        <ele>200</ele>
        <time>2011-03-22T17:43:32Z</time>
      </trkpt>
      <trkpt lat="47.12366" lon="5.56252">
        <ele>200</ele>
        <time>2011-03-22T17:43:37Z</time>
      </trkpt>
      <trkpt lat="47.12344" lon="5.56229">
        <ele>200</ele>
        <time>2011-03-22T17:43:43Z</time>
      </trkpt>
      <trkpt lat="47.1229" lon="5.56154">
        <ele>199</ele>
        <time>2011-03-22T17:44:00Z</time>
      </trkpt>
      <trkpt lat="47.12217" lon="5.56053">
        <ele>200</ele>
        <time>2011-03-22T17:44:19Z</time>
      </trkpt>
      <trkpt lat="47.12099" lon="5.55882">
        <ele>200</ele>
        <time>2011-03-22T17:44:45Z</time>
      </trkpt>
      <trkpt lat="47.11968" lon="5.55696">
        <ele>200</ele>
        <time>2011-03-22T17:45:12Z</time>
      </trkpt>
      <trkpt lat="47.1183" lon="5.55503">
        <ele>200</ele>
        <time>2011-03-22T17:45:40Z</time>
      </trkpt>
      <trkpt lat="47.11721" lon="5.55348">
        <ele>200</ele>
        <time>2011-03-22T17:46:03Z</time>
      </trkpt>
      <trkpt lat="47.11549" lon="5.55108">
        <ele>199</ele>
        <time>2011-03-22T17:46:38Z</time>
      </trkpt>
      <trkpt lat="47.11393" lon="5.54888">
        <ele>199</ele>
        <time>2011-03-22T17:47:09Z</time>
      </trkpt>
      <trkpt lat="47.11315" lon="5.54804">
        <ele>198</ele>
        <time>2011-03-22T17:47:23Z</time>
      </trkpt>
      <trkpt lat="47.11154" lon="5.54742">
        <ele>198</ele>
        <time>2011-03-22T17:47:49Z</time>
      </trkpt>
      <trkpt lat="47.11027" lon="5.54691">
        <ele>198</ele>
        <time>2011-03-22T17:48:11Z</time>
      </trkpt>
      <trkpt lat="47.10873" lon="5.54631">
        <ele>199</ele>
        <time>2011-03-22T17:48:36Z</time>
      </trkpt>
      <trkpt lat="47.10733" lon="5.54576">
        <ele>199</ele>
        <time>2011-03-22T17:48:58Z</time>
      </trkpt>
      <trkpt lat="47.10576" lon="5.54512">
        <ele>199</ele>
        <time>2011-03-22T17:49:23Z</time>
      </trkpt>
      <trkpt lat="47.10402" lon="5.54441">
        <ele>199</ele>
        <time>2011-03-22T17:49:50Z</time>
      </trkpt>
      <trkpt lat="47.10282" lon="5.54392">
        <ele>199</ele>
        <time>2011-03-22T17:50:10Z</time>
      </trkpt>
      <trkpt lat="47.10078" lon="5.54309">
        <ele>198</ele>
        <time>2011-03-22T17:50:44Z</time>
      </trkpt>
      <trkpt lat="47.0997" lon="5.54228">
        <ele>198</ele>
        <time>2011-03-22T17:51:03Z</time>
      </trkpt>
      <trkpt lat="47.09878" lon="5.54107">
        <ele>199</ele>
        <time>2011-03-22T17:51:22Z</time>
      </trkpt>
      <trkpt lat="47.09796" lon="5.5392">
        <ele>198</ele>
        <time>2011-03-22T17:51:45Z</time>
      </trkpt>
      <trkpt lat="47.09762" lon="5.53805">
        <ele>200</ele>
        <time>2011-03-22T17:52:00Z</time>
      </trkpt>
      <trkpt lat="47.09757" lon="5.53784">
        <ele>199</ele>
        <time>2011-03-22T17:52:03Z</time>
      </trkpt>
      <trkpt lat="47.09758" lon="5.53754">
        <ele>200</ele>
        <time>2011-03-22T17:52:09Z</time>
      </trkpt>
      <trkpt lat="47.09744" lon="5.53681">
        <ele>198</ele>
        <time>2011-03-22T17:52:23Z</time>
      </trkpt>
      <trkpt lat="47.09742" lon="5.53675">
        <ele>199</ele>
        <time>2011-03-22T17:52:24Z</time>
      </trkpt>
      <trkpt lat="47.09713" lon="5.53527">
        <ele>198</ele>
        <time>2011-03-22T17:52:46Z</time>
      </trkpt>
      <trkpt lat="47.09693" lon="5.53433">
        <ele>197</ele>
        <time>2011-03-22T17:52:59Z</time>
      </trkpt>
      <trkpt lat="47.09671" lon="5.53332">
        <ele>197</ele>
        <time>2011-03-22T17:53:15Z</time>
      </trkpt>
      <trkpt lat="47.09644" lon="5.53202">
        <ele>198</ele>
        <time>2011-03-22T17:53:33Z</time>
      </trkpt>
      <trkpt lat="47.09633" lon="5.53178">
        <ele>198</ele>
        <time>2011-03-22T17:53:37Z</time>
      </trkpt>
      <trkpt lat="47.0963" lon="5.53135">
        <ele>197</ele>
        <time>2011-03-22T17:53:43Z</time>
      </trkpt>
      <trkpt lat="47.09597" lon="5.5297">
        <ele>197</ele>
        <time>2011-03-22T17:54:04Z</time>
      </trkpt>
      <trkpt lat="47.09559" lon="5.52784">
        <ele>197</ele>
        <time>2011-03-22T17:54:26Z</time>
      </trkpt>
      <trkpt lat="47.09544" lon="5.52701">
        <ele>199</ele>
        <time>2011-03-22T17:54:36Z</time>
      </trkpt>
      <trkpt lat="47.09541" lon="5.52684">
        <ele>199</ele>
        <time>2011-03-22T17:54:40Z</time>
      </trkpt>
      <trkpt lat="47.09532" lon="5.52681">
        <ele>200</ele>
        <time>2011-03-22T17:54:44Z</time>
      </trkpt>
      <trkpt lat="47.09523" lon="5.52685">
        <ele>201</ele>
        <time>2011-03-22T17:54:47Z</time>
      </trkpt>
      <trkpt lat="47.09514" lon="5.52671">
        <ele>200</ele>
        <time>2011-03-22T17:54:51Z</time>
      </trkpt>
      <trkpt lat="47.09485" lon="5.52535">
        <ele>198</ele>
        <time>2011-03-22T17:55:07Z</time>
      </trkpt>
      <trkpt lat="47.09442" lon="5.52333">
        <ele>198</ele>
        <time>2011-03-22T17:55:31Z</time>
      </trkpt>
      <trkpt lat="47.09402" lon="5.52137">
        <ele>198</ele>
        <time>2011-03-22T17:55:54Z</time>
      </trkpt>
      <trkpt lat="47.09363" lon="5.51942">
        <ele>198</ele>
        <time>2011-03-22T17:56:17Z</time>
      </trkpt>
      <trkpt lat="47.09333" lon="5.51787">
        <ele>198</ele>
        <time>2011-03-22T17:56:34Z</time>
      </trkpt>
      <trkpt lat="47.09293" lon="5.51596">
        <ele>198</ele>
        <time>2011-03-22T17:56:55Z</time>
      </trkpt>
      <trkpt lat="47.09274" lon="5.51445">
        <ele>198</ele>
        <time>2011-03-22T17:57:11Z</time>
      </trkpt>
      <trkpt lat="47.09271" lon="5.51331">
        <ele>198</ele>
        <time>2011-03-22T17:57:23Z</time>
      </trkpt>
      <trkpt lat="47.09272" lon="5.51304">
        <ele>199</ele>
        <time>2011-03-22T17:57:26Z</time>
      </trkpt>
      <trkpt lat="47.09277" lon="5.51189">
        <ele>199</ele>
        <time>2011-03-22T17:57:38Z</time>
      </trkpt>
      <trkpt lat="47.09285" lon="5.51028">
        <ele>198</ele>
        <time>2011-03-22T17:57:56Z</time>
      </trkpt>
      <trkpt lat="47.09291" lon="5.50912">
        <ele>198</ele>
        <time>2011-03-22T17:58:09Z</time>
      </trkpt>
      <trkpt lat="47.093" lon="5.50875">
        <ele>198</ele>
        <time>2011-03-22T17:58:14Z</time>
      </trkpt>
      <trkpt lat="47.09298" lon="5.50846">
        <ele>198</ele>
        <time>2011-03-22T17:58:18Z</time>
      </trkpt>
      <trkpt lat="47.09293" lon="5.50775">
        <ele>199</ele>
        <time>2011-03-22T17:58:28Z</time>
      </trkpt>
      <trkpt lat="47.09307" lon="5.50661">
        <ele>198</ele>
        <time>2011-03-22T17:58:39Z</time>
      </trkpt>
      <trkpt lat="47.09316" lon="5.50506">
        <ele>198</ele>
        <time>2011-03-22T17:58:56Z</time>
      </trkpt>
      <trkpt lat="47.09316" lon="5.50481">
        <ele>197</ele>
        <time>2011-03-22T17:58:59Z</time>
      </trkpt>
      <trkpt lat="47.09291" lon="5.50438">
        <ele>196</ele>
        <time>2011-03-22T17:59:06Z</time>
      </trkpt>
      <trkpt lat="47.0929" lon="5.50412">
        <ele>196</ele>
        <time>2011-03-22T17:59:11Z</time>
      </trkpt>
      <trkpt lat="47.09292" lon="5.50406">
        <ele>196</ele>
        <time>2011-03-22T17:59:12Z</time>
      </trkpt>
      <trkpt lat="47.09299" lon="5.5038">
        <ele>197</ele>
        <time>2011-03-22T17:59:16Z</time>
      </trkpt>
      <trkpt lat="47.09307" lon="5.50333">
        <ele>197</ele>
        <time>2011-03-22T17:59:23Z</time>
      </trkpt>
      <trkpt lat="47.09337" lon="5.50297">
        <ele>200</ele>
        <time>2011-03-22T17:59:32Z</time>
      </trkpt>
      <trkpt lat="47.09346" lon="5.50299">
        <ele>200</ele>
        <time>2011-03-22T17:59:35Z</time>
      </trkpt>
      <trkpt lat="47.09353" lon="5.50288">
        <ele>199</ele>
        <time>2011-03-22T17:59:39Z</time>
      </trkpt>
      <trkpt lat="47.09355" lon="5.50276">
        <ele>199</ele>
        <time>2011-03-22T17:59:41Z</time>
      </trkpt>
      <trkpt lat="47.09358" lon="5.50228">
        <ele>198</ele>
        <time>2011-03-22T17:59:48Z</time>
      </trkpt>
      <trkpt lat="47.09356" lon="5.50207">
        <ele>198</ele>
        <time>2011-03-22T17:59:51Z</time>
      </trkpt>
      <trkpt lat="47.09359" lon="5.50121">
        <ele>198</ele>
        <time>2011-03-22T18:00:03Z</time>
      </trkpt>
      <trkpt lat="47.09365" lon="5.50041">
        <ele>198</ele>
        <time>2011-03-22T18:00:15Z</time>
      </trkpt>
      <trkpt lat="47.09367" lon="5.50029">
        <ele>197</ele>
        <time>2011-03-22T18:00:20Z</time>
      </trkpt>
      <trkpt lat="47.09369" lon="5.50021">
        <ele>197</ele>
        <time>2011-03-22T18:00:39Z</time>
      </trkpt>
      <trkpt lat="47.09372" lon="5.50013">
        <ele>198</ele>
        <time>2011-03-22T18:01:02Z</time>
      </trkpt>
      <trkpt lat="47.09374" lon="5.49961">
        <ele>198</ele>
        <time>2011-03-22T18:01:12Z</time>
      </trkpt>
      <trkpt lat="47.09371" lon="5.49937">
        <ele>199</ele>
        <time>2011-03-22T18:01:16Z</time>
      </trkpt>
      <trkpt lat="47.09359" lon="5.49899">
        <ele>201</ele>
        <time>2011-03-22T18:01:28Z</time>
      </trkpt>
      <trkpt lat="47.09357" lon="5.49897">
        <ele>201</ele>
        <time>2011-03-22T18:01:34Z</time>
      </trkpt>
      <trkpt lat="47.09331" lon="5.49923">
        <ele>202</ele>
        <time>2011-03-22T18:01:44Z</time>
      </trkpt>
      <trkpt lat="47.09306" lon="5.49922">
        <ele>201</ele>
        <time>2011-03-22T18:01:49Z</time>
      </trkpt>
      <trkpt lat="47.0923" lon="5.49842">
        <ele>199</ele>
        <time>2011-03-22T18:02:04Z</time>
      </trkpt>
      <trkpt lat="47.09221" lon="5.49834">
        <ele>199</ele>
        <time>2011-03-22T18:02:06Z</time>
      </trkpt>
      <trkpt lat="47.09154" lon="5.4978">
        <ele>198</ele>
        <time>2011-03-22T18:02:19Z</time>
      </trkpt>
      <trkpt lat="47.09108" lon="5.49733">
        <ele>199</ele>
        <time>2011-03-22T18:02:35Z</time>
      </trkpt>
      <trkpt lat="47.0908" lon="5.49709">
        <ele>198</ele>
        <time>2011-03-22T18:02:44Z</time>
      </trkpt>
      <trkpt lat="47.09062" lon="5.49689">
        <ele>199</ele>
        <time>2011-03-22T18:02:53Z</time>
      </trkpt>
      <trkpt lat="47.09053" lon="5.49681">
        <ele>199</ele>
        <time>2011-03-22T18:03:06Z</time>
      </trkpt>
      <trkpt lat="47.09053" lon="5.49681">
        <ele>199</ele>
        <time>2011-03-22T18:03:08Z</time>
      </trkpt>
      <trkpt lat="47.09049" lon="5.4968">
        <ele>198</ele>
        <time>2011-03-22T18:03:11Z</time>
      </trkpt>
      <trkpt lat="47.0904" lon="5.49685">
        <ele>199</ele>
        <time>2011-03-22T18:03:16Z</time>
      </trkpt>
      <trkpt lat="47.09013" lon="5.4967">
        <ele>199</ele>
        <time>2011-03-22T18:03:24Z</time>
      </trkpt>
      <trkpt lat="47.08973" lon="5.497">
        <ele>199</ele>
        <time>2011-03-22T18:03:36Z</time>
      </trkpt>
      <trkpt lat="47.08968" lon="5.49707">
        <ele>199</ele>
        <time>2011-03-22T18:03:38Z</time>
      </trkpt>
      <trkpt lat="47.08951" lon="5.49751">
        <ele>198</ele>
        <time>2011-03-22T18:03:45Z</time>
      </trkpt>
      <trkpt lat="47.08926" lon="5.49811">
        <ele>199</ele>
        <time>2011-03-22T18:03:56Z</time>
      </trkpt>
      <trkpt lat="47.08902" lon="5.49881">
        <ele>200</ele>
        <time>2011-03-22T18:04:10Z</time>
      </trkpt>
      <trkpt lat="47.08894" lon="5.49882">
        <ele>200</ele>
        <time>2011-03-22T18:04:15Z</time>
      </trkpt>
      <trkpt lat="47.08846" lon="5.49841">
        <ele>200</ele>
        <time>2011-03-22T18:04:30Z</time>
      </trkpt>
      <trkpt lat="47.08832" lon="5.49827">
        <ele>200</ele>
        <time>2011-03-22T18:04:34Z</time>
      </trkpt>
      <trkpt lat="47.08819" lon="5.49833">
        <ele>199</ele>
        <time>2011-03-22T18:04:38Z</time>
      </trkpt>
      <trkpt lat="47.08815" lon="5.49841">
        <ele>198</ele>
        <time>2011-03-22T18:04:41Z</time>
      </trkpt>
      <trkpt lat="47.08809" lon="5.49844">
        <ele>198</ele>
        <time>2011-03-22T18:04:44Z</time>
      </trkpt>
      <trkpt lat="47.08779" lon="5.49826">
        <ele>198</ele>
        <time>2011-03-22T18:04:53Z</time>
      </trkpt>
      <trkpt lat="47.08759" lon="5.49718">
        <ele>199</ele>
        <time>2011-03-22T18:05:10Z</time>
      </trkpt>
      <trkpt lat="47.08759" lon="5.49688">
        <ele>198</ele>
        <time>2011-03-22T18:05:14Z</time>
      </trkpt>
      <trkpt lat="47.08763" lon="5.49608">
        <ele>199</ele>
        <time>2011-03-22T18:05:25Z</time>
      </trkpt>
      <trkpt lat="47.08758" lon="5.49574">
        <ele>199</ele>
        <time>2011-03-22T18:05:30Z</time>
      </trkpt>
      <trkpt lat="47.08756" lon="5.49553">
        <ele>197</ele>
        <time>2011-03-22T18:05:33Z</time>
      </trkpt>
      <trkpt lat="47.08747" lon="5.49502">
        <ele>196</ele>
        <time>2011-03-22T18:05:39Z</time>
      </trkpt>
      <trkpt lat="47.08734" lon="5.49482">
        <ele>198</ele>
        <time>2011-03-22T18:05:43Z</time>
      </trkpt>
      <trkpt lat="47.08701" lon="5.49434">
        <ele>200</ele>
        <time>2011-03-22T18:05:57Z</time>
      </trkpt>
      <trkpt lat="47.08699" lon="5.49428">
        <ele>199</ele>
        <time>2011-03-22T18:05:58Z</time>
      </trkpt>
      <trkpt lat="47.08656" lon="5.49278">
        <ele>198</ele>
        <time>2011-03-22T18:06:17Z</time>
      </trkpt>
      <trkpt lat="47.08591" lon="5.49143">
        <ele>199</ele>
        <time>2011-03-22T18:06:35Z</time>
      </trkpt>
      <trkpt lat="47.08523" lon="5.4907">
        <ele>199</ele>
        <time>2011-03-22T18:06:48Z</time>
      </trkpt>
      <trkpt lat="47.08423" lon="5.48908">
        <ele>198</ele>
        <time>2011-03-22T18:07:11Z</time>
      </trkpt>
      <trkpt lat="47.08402" lon="5.48874">
        <ele>199</ele>
        <time>2011-03-22T18:07:16Z</time>
      </trkpt>
      <trkpt lat="47.08395" lon="5.48849">
        <ele>199</ele>
        <time>2011-03-22T18:07:19Z</time>
      </trkpt>
      <trkpt lat="47.08378" lon="5.48825">
        <ele>198</ele>
        <time>2011-03-22T18:07:23Z</time>
      </trkpt>
      <trkpt lat="47.08367" lon="5.48816">
        <ele>199</ele>
        <time>2011-03-22T18:07:25Z</time>
      </trkpt>
      <trkpt lat="47.08233" lon="5.48607">
        <ele>198</ele>
        <time>2011-03-22T18:07:54Z</time>
      </trkpt>
      <trkpt lat="47.08128" lon="5.48515">
        <ele>199</ele>
        <time>2011-03-22T18:08:12Z</time>
      </trkpt>
      <trkpt lat="47.08084" lon="5.48481">
        <ele>198</ele>
        <time>2011-03-22T18:08:19Z</time>
      </trkpt>
      <trkpt lat="47.08045" lon="5.48493">
        <ele>199</ele>
        <time>2011-03-22T18:08:26Z</time>
      </trkpt>
      <trkpt lat="47.08042" lon="5.48501">
        <ele>199</ele>
        <time>2011-03-22T18:08:27Z</time>
      </trkpt>
      <trkpt lat="47.0797" lon="5.48715">
        <ele>199</ele>
        <time>2011-03-22T18:08:53Z</time>
      </trkpt>
      <trkpt lat="47.07909" lon="5.4891">
        <ele>200</ele>
        <time>2011-03-22T18:09:17Z</time>
      </trkpt>
      <trkpt lat="47.07856" lon="5.48957">
        <ele>200</ele>
        <time>2011-03-22T18:09:27Z</time>
      </trkpt>
      <trkpt lat="47.07812" lon="5.48935">
        <ele>199</ele>
        <time>2011-03-22T18:09:35Z</time>
      </trkpt>
      <trkpt lat="47.0781" lon="5.48928">
        <ele>199</ele>
        <time>2011-03-22T18:09:36Z</time>
      </trkpt>
      <trkpt lat="47.07806" lon="5.48913">
        <ele>200</ele>
        <time>2011-03-22T18:09:38Z</time>
      </trkpt>
      <trkpt lat="47.07767" lon="5.48877">
        <ele>200</ele>
        <time>2011-03-22T18:09:47Z</time>
      </trkpt>
      <trkpt lat="47.07743" lon="5.48919">
        <ele>200</ele>
        <time>2011-03-22T18:09:54Z</time>
      </trkpt>
      <trkpt lat="47.07727" lon="5.48954">
        <ele>200</ele>
        <time>2011-03-22T18:09:59Z</time>
      </trkpt>
      <trkpt lat="47.07612" lon="5.49088">
        <ele>202</ele>
        <time>2011-03-22T18:10:23Z</time>
      </trkpt>
      <trkpt lat="47.0753" lon="5.49246">
        <ele>202</ele>
        <time>2011-03-22T18:10:45Z</time>
      </trkpt>
      <trkpt lat="47.07464" lon="5.49374">
        <ele>205</ele>
        <time>2011-03-22T18:11:04Z</time>
      </trkpt>
      <trkpt lat="47.07453" lon="5.49396">
        <ele>207</ele>
        <time>2011-03-22T18:11:08Z</time>
      </trkpt>
      <trkpt lat="47.07438" lon="5.49408">
        <ele>207</ele>
        <time>2011-03-22T18:11:12Z</time>
      </trkpt>
      <trkpt lat="47.0743" lon="5.49411">
        <ele>208</ele>
        <time>2011-03-22T18:11:14Z</time>
      </trkpt>
      <trkpt lat="47.07423" lon="5.49457">
        <ele>208</ele>
        <time>2011-03-22T18:11:23Z</time>
      </trkpt>
      <trkpt lat="47.07429" lon="5.49463">
        <ele>208</ele>
        <time>2011-03-22T18:11:25Z</time>
      </trkpt>
      <trkpt lat="47.07436" lon="5.49469">
        <ele>208</ele>
        <time>2011-03-22T18:11:27Z</time>
      </trkpt>
      <trkpt lat="47.07437" lon="5.49489">
        <ele>209</ele>
        <time>2011-03-22T18:11:31Z</time>
      </trkpt>
      <trkpt lat="47.07429" lon="5.49506">
        <ele>210</ele>
        <time>2011-03-22T18:11:42Z</time>
      </trkpt>
      <trkpt lat="47.07428" lon="5.49505">
        <ele>210</ele>
        <time>2011-03-22T18:12:06Z</time>
      </trkpt>
      <trkpt lat="47.0743" lon="5.49505">
        <ele>209</ele>
        <time>2011-03-22T18:12:46Z</time>
      </trkpt>
      <trkpt lat="47.07429" lon="5.49506">
        <ele>210</ele>
        <time>2011-03-22T18:13:17Z</time>
      </trkpt>
      <trkpt lat="47.07429" lon="5.49505">
        <ele>210</ele>
        <time>2011-03-22T18:13:39Z</time>
      </trkpt>
      <trkpt lat="47.07428" lon="5.49502">
        <ele>210</ele>
        <time>2011-03-22T18:14:29Z</time>
      </trkpt>
      <trkpt lat="47.07427" lon="5.49503">
        <ele>210</ele>
        <time>2011-03-22T18:15:13Z</time>
      </trkpt>
      <trkpt lat="47.07427" lon="5.49501">
        <ele>209</ele>
        <time>2011-03-22T18:16:22Z</time>
      </trkpt>
      <trkpt lat="47.0743" lon="5.49505">
        <ele>210</ele>
        <time>2011-03-22T18:16:45Z</time>
      </trkpt>
      <trkpt lat="47.07426" lon="5.49507">
        <ele>210</ele>
        <time>2011-03-22T18:16:58Z</time>
      </trkpt>
      <trkpt lat="47.07426" lon="5.49507">
        <ele>211</ele>
        <time>2011-03-22T18:17:09Z</time>
      </trkpt>
    </trkseg>
  </trk>
</gpx>